<?xml version="1.0" encoding="UTF-8" standalone="no" ?>
<gpx xmlns="http://www.topografix.com/GPX/1/1" xmlns:xsi="http://www.w3.org/2001/XMLSchema-instance" xsi:schemaLocation="http://www.topografix.com/GPX/1/1 http://www.topografix.com/GPX/1/1/gpx.xsd" version="1.1" creator="VisuGPX - https://www.visugpx.com">
  <metadata>
    <name>Dourdan / Montigny</name>
    <desc><![CDATA[vtt entre potes]]></desc>
  </metadata>
  <trk>
    <name><![CDATA[Tracé 002]]></name>
    <trkseg>
      <trkpt lat="48.68065" lon="1.95338">
        <ele>160.0039063</ele>
      </trkpt>
      <trkpt lat="48.68072" lon="1.95335">
        <ele>166.45</ele>
        <time>2011-10-22T12:50:49Z</time>
      </trkpt>
      <trkpt lat="48.68074" lon="1.95331">
        <ele>165.96</ele>
        <time>2011-10-22T12:50:50Z</time>
      </trkpt>
      <trkpt lat="48.68075" lon="1.95328">
        <ele>166.45</ele>
        <time>2011-10-22T12:50:51Z</time>
      </trkpt>
      <trkpt lat="48.68077" lon="1.95325">
        <ele>166.45</ele>
        <time>2011-10-22T12:50:52Z</time>
      </trkpt>
      <trkpt lat="48.68079" lon="1.95322">
        <ele>166.45</ele>
        <time>2011-10-22T12:50:53Z</time>
      </trkpt>
      <trkpt lat="48.68081" lon="1.95318">
        <ele>166.45</ele>
        <time>2011-10-22T12:50:54Z</time>
      </trkpt>
      <trkpt lat="48.68082" lon="1.95315">
        <ele>166.45</ele>
        <time>2011-10-22T12:50:55Z</time>
      </trkpt>
      <trkpt lat="48.68084" lon="1.95311">
        <ele>166.45</ele>
        <time>2011-10-22T12:50:56Z</time>
      </trkpt>
      <trkpt lat="48.68086" lon="1.95307">
        <ele>166.45</ele>
        <time>2011-10-22T12:50:57Z</time>
      </trkpt>
      <trkpt lat="48.68087" lon="1.95304">
        <ele>166.93</ele>
        <time>2011-10-22T12:50:58Z</time>
      </trkpt>
      <trkpt lat="48.68089" lon="1.953">
        <ele>166.45</ele>
        <time>2011-10-22T12:50:59Z</time>
      </trkpt>
      <trkpt lat="48.68116" lon="1.95257">
        <ele>165.96</ele>
        <time>2011-10-22T12:51:10Z</time>
      </trkpt>
      <trkpt lat="48.68125" lon="1.9523">
        <ele>165.96</ele>
        <time>2011-10-22T12:51:15Z</time>
      </trkpt>
      <trkpt lat="48.68146" lon="1.95165">
        <ele>166.93</ele>
        <time>2011-10-22T12:51:27Z</time>
      </trkpt>
      <trkpt lat="48.68144" lon="1.95084">
        <ele>165.96</ele>
        <time>2011-10-22T12:51:40Z</time>
      </trkpt>
      <trkpt lat="48.68168" lon="1.95018">
        <ele>165.48</ele>
        <time>2011-10-22T12:51:52Z</time>
      </trkpt>
      <trkpt lat="48.68176" lon="1.95004">
        <ele>165</ele>
        <time>2011-10-22T12:51:55Z</time>
      </trkpt>
      <trkpt lat="48.68179" lon="1.94998">
        <ele>165</ele>
        <time>2011-10-22T12:51:56Z</time>
      </trkpt>
      <trkpt lat="48.68217" lon="1.94939">
        <ele>165.48</ele>
        <time>2011-10-22T12:52:09Z</time>
      </trkpt>
      <trkpt lat="48.68258" lon="1.94909">
        <ele>166.45</ele>
        <time>2011-10-22T12:52:20Z</time>
      </trkpt>
      <trkpt lat="48.68274" lon="1.94902">
        <ele>152.99</ele>
        <time>2011-10-22T12:52:24Z</time>
      </trkpt>
      <trkpt lat="48.68277" lon="1.949">
        <ele>170.29</ele>
        <time>2011-10-22T12:52:25Z</time>
      </trkpt>
      <trkpt lat="48.6828" lon="1.94899">
        <ele>166.93</ele>
        <time>2011-10-22T12:52:26Z</time>
      </trkpt>
      <trkpt lat="48.68289" lon="1.94895">
        <ele>146.74</ele>
        <time>2011-10-22T12:52:32Z</time>
      </trkpt>
      <trkpt lat="48.68289" lon="1.94895">
        <ele>166.93</ele>
        <time>2011-10-22T12:52:33Z</time>
      </trkpt>
      <trkpt lat="48.68289" lon="1.94895">
        <ele>166.93</ele>
        <time>2011-10-22T12:52:55Z</time>
      </trkpt>
      <trkpt lat="48.6829" lon="1.94894">
        <ele>166.93</ele>
        <time>2011-10-22T12:52:59Z</time>
      </trkpt>
      <trkpt lat="48.68292" lon="1.94893">
        <ele>166.93</ele>
        <time>2011-10-22T12:53:00Z</time>
      </trkpt>
      <trkpt lat="48.68293" lon="1.94891">
        <ele>166.45</ele>
        <time>2011-10-22T12:53:01Z</time>
      </trkpt>
      <trkpt lat="48.68296" lon="1.94889">
        <ele>166.45</ele>
        <time>2011-10-22T12:53:02Z</time>
      </trkpt>
      <trkpt lat="48.68299" lon="1.94885">
        <ele>165.96</ele>
        <time>2011-10-22T12:53:03Z</time>
      </trkpt>
      <trkpt lat="48.68301" lon="1.94882">
        <ele>165.96</ele>
        <time>2011-10-22T12:53:04Z</time>
      </trkpt>
      <trkpt lat="48.68303" lon="1.94879">
        <ele>165.48</ele>
        <time>2011-10-22T12:53:05Z</time>
      </trkpt>
      <trkpt lat="48.68305" lon="1.94876">
        <ele>165.48</ele>
        <time>2011-10-22T12:53:06Z</time>
      </trkpt>
      <trkpt lat="48.68307" lon="1.94873">
        <ele>165.48</ele>
        <time>2011-10-22T12:53:07Z</time>
      </trkpt>
      <trkpt lat="48.6831" lon="1.94868">
        <ele>160.68</ele>
        <time>2011-10-22T12:53:19Z</time>
      </trkpt>
      <trkpt lat="48.6831" lon="1.94868">
        <ele>165.96</ele>
        <time>2011-10-22T12:53:20Z</time>
      </trkpt>
      <trkpt lat="48.68316" lon="1.94847">
        <ele>165.96</ele>
        <time>2011-10-22T12:53:37Z</time>
      </trkpt>
      <trkpt lat="48.68324" lon="1.94824">
        <ele>167.41</ele>
        <time>2011-10-22T12:53:45Z</time>
      </trkpt>
      <trkpt lat="48.68323" lon="1.94821">
        <ele>167.41</ele>
        <time>2011-10-22T12:53:46Z</time>
      </trkpt>
      <trkpt lat="48.68321" lon="1.94819">
        <ele>166.93</ele>
        <time>2011-10-22T12:53:47Z</time>
      </trkpt>
      <trkpt lat="48.68319" lon="1.94816">
        <ele>166.93</ele>
        <time>2011-10-22T12:53:48Z</time>
      </trkpt>
      <trkpt lat="48.68316" lon="1.94813">
        <ele>167.41</ele>
        <time>2011-10-22T12:53:49Z</time>
      </trkpt>
      <trkpt lat="48.68314" lon="1.94812">
        <ele>166.93</ele>
        <time>2011-10-22T12:53:50Z</time>
      </trkpt>
      <trkpt lat="48.68285" lon="1.94797">
        <ele>166.93</ele>
        <time>2011-10-22T12:54:01Z</time>
      </trkpt>
      <trkpt lat="48.68244" lon="1.94804">
        <ele>163.56</ele>
        <time>2011-10-22T12:54:10Z</time>
      </trkpt>
      <trkpt lat="48.68209" lon="1.9478">
        <ele>164.04</ele>
        <time>2011-10-22T12:54:21Z</time>
      </trkpt>
      <trkpt lat="48.68216" lon="1.94766">
        <ele>164.52</ele>
        <time>2011-10-22T12:54:27Z</time>
      </trkpt>
      <trkpt lat="48.68226" lon="1.94724">
        <ele>166.93</ele>
        <time>2011-10-22T12:54:39Z</time>
      </trkpt>
      <trkpt lat="48.68232" lon="1.94701">
        <ele>163.56</ele>
        <time>2011-10-22T12:54:45Z</time>
      </trkpt>
      <trkpt lat="48.68234" lon="1.94697">
        <ele>163.08</ele>
        <time>2011-10-22T12:54:46Z</time>
      </trkpt>
      <trkpt lat="48.68232" lon="1.94666">
        <ele>162.6</ele>
        <time>2011-10-22T12:54:57Z</time>
      </trkpt>
      <trkpt lat="48.68234" lon="1.94663">
        <ele>162.6</ele>
        <time>2011-10-22T12:55:00Z</time>
      </trkpt>
      <trkpt lat="48.68235" lon="1.94661">
        <ele>162.6</ele>
        <time>2011-10-22T12:55:01Z</time>
      </trkpt>
      <trkpt lat="48.6824" lon="1.94657">
        <ele>162.6</ele>
        <time>2011-10-22T12:55:12Z</time>
      </trkpt>
      <trkpt lat="48.68247" lon="1.94647">
        <ele>163.08</ele>
        <time>2011-10-22T12:55:24Z</time>
      </trkpt>
      <trkpt lat="48.68247" lon="1.94641">
        <ele>163.08</ele>
        <time>2011-10-22T12:55:40Z</time>
      </trkpt>
      <trkpt lat="48.68247" lon="1.94635">
        <ele>163.56</ele>
        <time>2011-10-22T12:55:42Z</time>
      </trkpt>
      <trkpt lat="48.68249" lon="1.94632">
        <ele>163.56</ele>
        <time>2011-10-22T12:55:43Z</time>
      </trkpt>
      <trkpt lat="48.68273" lon="1.9458">
        <ele>165</ele>
        <time>2011-10-22T12:55:55Z</time>
      </trkpt>
      <trkpt lat="48.68302" lon="1.94548">
        <ele>165</ele>
        <time>2011-10-22T12:56:06Z</time>
      </trkpt>
      <trkpt lat="48.68309" lon="1.9455">
        <ele>165.96</ele>
        <time>2011-10-22T12:56:10Z</time>
      </trkpt>
      <trkpt lat="48.68311" lon="1.94555">
        <ele>165.96</ele>
        <time>2011-10-22T12:56:12Z</time>
      </trkpt>
      <trkpt lat="48.68311" lon="1.94558">
        <ele>165.96</ele>
        <time>2011-10-22T12:56:13Z</time>
      </trkpt>
      <trkpt lat="48.6831" lon="1.94561">
        <ele>165.48</ele>
        <time>2011-10-22T12:56:14Z</time>
      </trkpt>
      <trkpt lat="48.6831" lon="1.94564">
        <ele>165.96</ele>
        <time>2011-10-22T12:56:15Z</time>
      </trkpt>
      <trkpt lat="48.6831" lon="1.94567">
        <ele>165.96</ele>
        <time>2011-10-22T12:56:16Z</time>
      </trkpt>
      <trkpt lat="48.68309" lon="1.94571">
        <ele>165.96</ele>
        <time>2011-10-22T12:56:17Z</time>
      </trkpt>
      <trkpt lat="48.68308" lon="1.94577">
        <ele>167.41</ele>
        <time>2011-10-22T12:56:19Z</time>
      </trkpt>
      <trkpt lat="48.68306" lon="1.94595">
        <ele>167.41</ele>
        <time>2011-10-22T12:56:25Z</time>
      </trkpt>
      <trkpt lat="48.68311" lon="1.94614">
        <ele>169.33</ele>
        <time>2011-10-22T12:56:37Z</time>
      </trkpt>
      <trkpt lat="48.68311" lon="1.94607">
        <ele>168.37</ele>
        <time>2011-10-22T12:56:42Z</time>
      </trkpt>
      <trkpt lat="48.68311" lon="1.94603">
        <ele>168.37</ele>
        <time>2011-10-22T12:56:44Z</time>
      </trkpt>
      <trkpt lat="48.6831" lon="1.94601">
        <ele>168.37</ele>
        <time>2011-10-22T12:56:45Z</time>
      </trkpt>
      <trkpt lat="48.68309" lon="1.94598">
        <ele>168.37</ele>
        <time>2011-10-22T12:56:46Z</time>
      </trkpt>
      <trkpt lat="48.68308" lon="1.94595">
        <ele>167.89</ele>
        <time>2011-10-22T12:56:47Z</time>
      </trkpt>
      <trkpt lat="48.68307" lon="1.94591">
        <ele>167.41</ele>
        <time>2011-10-22T12:56:48Z</time>
      </trkpt>
      <trkpt lat="48.68306" lon="1.94586">
        <ele>167.41</ele>
        <time>2011-10-22T12:56:49Z</time>
      </trkpt>
      <trkpt lat="48.68306" lon="1.94582">
        <ele>166.93</ele>
        <time>2011-10-22T12:56:50Z</time>
      </trkpt>
      <trkpt lat="48.68307" lon="1.94579">
        <ele>166.93</ele>
        <time>2011-10-22T12:56:51Z</time>
      </trkpt>
      <trkpt lat="48.68308" lon="1.94577">
        <ele>167.41</ele>
        <time>2011-10-22T12:56:52Z</time>
      </trkpt>
      <trkpt lat="48.68309" lon="1.94568">
        <ele>165.48</ele>
        <time>2011-10-22T12:57:03Z</time>
      </trkpt>
      <trkpt lat="48.6831" lon="1.94565">
        <ele>165</ele>
        <time>2011-10-22T12:57:04Z</time>
      </trkpt>
      <trkpt lat="48.68311" lon="1.94558">
        <ele>165.48</ele>
        <time>2011-10-22T12:57:06Z</time>
      </trkpt>
      <trkpt lat="48.6831" lon="1.9454">
        <ele>164.04</ele>
        <time>2011-10-22T12:57:12Z</time>
      </trkpt>
      <trkpt lat="48.6831" lon="1.94536">
        <ele>163.56</ele>
        <time>2011-10-22T12:57:13Z</time>
      </trkpt>
      <trkpt lat="48.68309" lon="1.94527">
        <ele>164.04</ele>
        <time>2011-10-22T12:57:17Z</time>
      </trkpt>
      <trkpt lat="48.6831" lon="1.94526">
        <ele>164.04</ele>
        <time>2011-10-22T12:57:19Z</time>
      </trkpt>
      <trkpt lat="48.68313" lon="1.94522">
        <ele>164.04</ele>
        <time>2011-10-22T12:57:23Z</time>
      </trkpt>
      <trkpt lat="48.68314" lon="1.9452">
        <ele>164.04</ele>
        <time>2011-10-22T12:57:24Z</time>
      </trkpt>
      <trkpt lat="48.68315" lon="1.94518">
        <ele>164.04</ele>
        <time>2011-10-22T12:57:25Z</time>
      </trkpt>
      <trkpt lat="48.68316" lon="1.94516">
        <ele>164.52</ele>
        <time>2011-10-22T12:57:26Z</time>
      </trkpt>
      <trkpt lat="48.68316" lon="1.94514">
        <ele>164.52</ele>
        <time>2011-10-22T12:57:27Z</time>
      </trkpt>
      <trkpt lat="48.68317" lon="1.94512">
        <ele>164.52</ele>
        <time>2011-10-22T12:57:28Z</time>
      </trkpt>
      <trkpt lat="48.6832" lon="1.94513">
        <ele>165.48</ele>
        <time>2011-10-22T12:57:38Z</time>
      </trkpt>
      <trkpt lat="48.68322" lon="1.94515">
        <ele>165.96</ele>
        <time>2011-10-22T12:57:48Z</time>
      </trkpt>
      <trkpt lat="48.68324" lon="1.94517">
        <ele>165.96</ele>
        <time>2011-10-22T12:57:49Z</time>
      </trkpt>
      <trkpt lat="48.68325" lon="1.94519">
        <ele>165.96</ele>
        <time>2011-10-22T12:57:50Z</time>
      </trkpt>
      <trkpt lat="48.68326" lon="1.94523">
        <ele>165.96</ele>
        <time>2011-10-22T12:57:51Z</time>
      </trkpt>
      <trkpt lat="48.68327" lon="1.94526">
        <ele>166.45</ele>
        <time>2011-10-22T12:57:52Z</time>
      </trkpt>
      <trkpt lat="48.6833" lon="1.9453">
        <ele>166.93</ele>
        <time>2011-10-22T12:57:54Z</time>
      </trkpt>
      <trkpt lat="48.68332" lon="1.94532">
        <ele>166.45</ele>
        <time>2011-10-22T12:57:55Z</time>
      </trkpt>
      <trkpt lat="48.6834" lon="1.94552">
        <ele>167.89</ele>
        <time>2011-10-22T12:58:03Z</time>
      </trkpt>
      <trkpt lat="48.68342" lon="1.94554">
        <ele>167.89</ele>
        <time>2011-10-22T12:58:04Z</time>
      </trkpt>
      <trkpt lat="48.68345" lon="1.94556">
        <ele>167.41</ele>
        <time>2011-10-22T12:58:05Z</time>
      </trkpt>
      <trkpt lat="48.6837" lon="1.94566">
        <ele>168.37</ele>
        <time>2011-10-22T12:58:17Z</time>
      </trkpt>
      <trkpt lat="48.68373" lon="1.94569">
        <ele>168.37</ele>
        <time>2011-10-22T12:58:18Z</time>
      </trkpt>
      <trkpt lat="48.68374" lon="1.94572">
        <ele>169.33</ele>
        <time>2011-10-22T12:58:19Z</time>
      </trkpt>
      <trkpt lat="48.68375" lon="1.94576">
        <ele>169.81</ele>
        <time>2011-10-22T12:58:20Z</time>
      </trkpt>
      <trkpt lat="48.68375" lon="1.9458">
        <ele>170.29</ele>
        <time>2011-10-22T12:58:21Z</time>
      </trkpt>
      <trkpt lat="48.68379" lon="1.94606">
        <ele>171.73</ele>
        <time>2011-10-22T12:58:29Z</time>
      </trkpt>
      <trkpt lat="48.68388" lon="1.94622">
        <ele>170.77</ele>
        <time>2011-10-22T12:58:39Z</time>
      </trkpt>
      <trkpt lat="48.68392" lon="1.94624">
        <ele>171.25</ele>
        <time>2011-10-22T12:58:42Z</time>
      </trkpt>
      <trkpt lat="48.68419" lon="1.94624">
        <ele>169.81</ele>
        <time>2011-10-22T12:58:54Z</time>
      </trkpt>
      <trkpt lat="48.68445" lon="1.94578">
        <ele>170.77</ele>
        <time>2011-10-22T12:59:05Z</time>
      </trkpt>
      <trkpt lat="48.68466" lon="1.94524">
        <ele>172.69</ele>
        <time>2011-10-22T12:59:16Z</time>
      </trkpt>
      <trkpt lat="48.68488" lon="1.94467">
        <ele>172.69</ele>
        <time>2011-10-22T12:59:28Z</time>
      </trkpt>
      <trkpt lat="48.68513" lon="1.94406">
        <ele>172.21</ele>
        <time>2011-10-22T12:59:42Z</time>
      </trkpt>
      <trkpt lat="48.68533" lon="1.94365">
        <ele>168.85</ele>
        <time>2011-10-22T12:59:51Z</time>
      </trkpt>
      <trkpt lat="48.68538" lon="1.94351">
        <ele>167.89</ele>
        <time>2011-10-22T12:59:53Z</time>
      </trkpt>
      <trkpt lat="48.68542" lon="1.94344">
        <ele>167.89</ele>
        <time>2011-10-22T12:59:54Z</time>
      </trkpt>
      <trkpt lat="48.68546" lon="1.94336">
        <ele>167.41</ele>
        <time>2011-10-22T12:59:55Z</time>
      </trkpt>
      <trkpt lat="48.68557" lon="1.94309">
        <ele>169.33</ele>
        <time>2011-10-22T12:59:59Z</time>
      </trkpt>
      <trkpt lat="48.6856" lon="1.94305">
        <ele>168.37</ele>
        <time>2011-10-22T13:00:00Z</time>
      </trkpt>
      <trkpt lat="48.68575" lon="1.94285">
        <ele>166.93</ele>
        <time>2011-10-22T13:00:07Z</time>
      </trkpt>
      <trkpt lat="48.6858" lon="1.94275">
        <ele>163.08</ele>
        <time>2011-10-22T13:00:11Z</time>
      </trkpt>
      <trkpt lat="48.68582" lon="1.94268">
        <ele>160.2</ele>
        <time>2011-10-22T13:00:13Z</time>
      </trkpt>
      <trkpt lat="48.68587" lon="1.94258">
        <ele>158.75</ele>
        <time>2011-10-22T13:00:15Z</time>
      </trkpt>
      <trkpt lat="48.6859" lon="1.94253">
        <ele>158.27</ele>
        <time>2011-10-22T13:00:16Z</time>
      </trkpt>
      <trkpt lat="48.68592" lon="1.94247">
        <ele>158.27</ele>
        <time>2011-10-22T13:00:17Z</time>
      </trkpt>
      <trkpt lat="48.68593" lon="1.94241">
        <ele>159.72</ele>
        <time>2011-10-22T13:00:18Z</time>
      </trkpt>
      <trkpt lat="48.68594" lon="1.94236">
        <ele>161.16</ele>
        <time>2011-10-22T13:00:19Z</time>
      </trkpt>
      <trkpt lat="48.68596" lon="1.94227">
        <ele>162.6</ele>
        <time>2011-10-22T13:00:21Z</time>
      </trkpt>
      <trkpt lat="48.68599" lon="1.94221">
        <ele>163.08</ele>
        <time>2011-10-22T13:00:23Z</time>
      </trkpt>
      <trkpt lat="48.686" lon="1.94213">
        <ele>164.04</ele>
        <time>2011-10-22T13:00:25Z</time>
      </trkpt>
      <trkpt lat="48.68601" lon="1.9421">
        <ele>164.04</ele>
        <time>2011-10-22T13:00:26Z</time>
      </trkpt>
      <trkpt lat="48.68602" lon="1.94207">
        <ele>164.04</ele>
        <time>2011-10-22T13:00:27Z</time>
      </trkpt>
      <trkpt lat="48.68604" lon="1.94204">
        <ele>165</ele>
        <time>2011-10-22T13:00:28Z</time>
      </trkpt>
      <trkpt lat="48.68605" lon="1.94203">
        <ele>165</ele>
        <time>2011-10-22T13:00:29Z</time>
      </trkpt>
      <trkpt lat="48.68607" lon="1.942">
        <ele>165.48</ele>
        <time>2011-10-22T13:00:30Z</time>
      </trkpt>
      <trkpt lat="48.68608" lon="1.94199">
        <ele>165.48</ele>
        <time>2011-10-22T13:00:31Z</time>
      </trkpt>
      <trkpt lat="48.68609" lon="1.94196">
        <ele>165.96</ele>
        <time>2011-10-22T13:00:32Z</time>
      </trkpt>
      <trkpt lat="48.6861" lon="1.94195">
        <ele>166.45</ele>
        <time>2011-10-22T13:00:33Z</time>
      </trkpt>
      <trkpt lat="48.68611" lon="1.94193">
        <ele>166.93</ele>
        <time>2011-10-22T13:00:34Z</time>
      </trkpt>
      <trkpt lat="48.68612" lon="1.9419">
        <ele>166.93</ele>
        <time>2011-10-22T13:00:35Z</time>
      </trkpt>
      <trkpt lat="48.68613" lon="1.94187">
        <ele>167.41</ele>
        <time>2011-10-22T13:00:36Z</time>
      </trkpt>
      <trkpt lat="48.68613" lon="1.94184">
        <ele>168.37</ele>
        <time>2011-10-22T13:00:37Z</time>
      </trkpt>
      <trkpt lat="48.68615" lon="1.94182">
        <ele>168.37</ele>
        <time>2011-10-22T13:00:38Z</time>
      </trkpt>
      <trkpt lat="48.68633" lon="1.94143">
        <ele>170.29</ele>
        <time>2011-10-22T13:00:52Z</time>
      </trkpt>
      <trkpt lat="48.6865" lon="1.94101">
        <ele>170.77</ele>
        <time>2011-10-22T13:01:04Z</time>
      </trkpt>
      <trkpt lat="48.68667" lon="1.94061">
        <ele>166.45</ele>
        <time>2011-10-22T13:01:12Z</time>
      </trkpt>
      <trkpt lat="48.68671" lon="1.94047">
        <ele>163.08</ele>
        <time>2011-10-22T13:01:14Z</time>
      </trkpt>
      <trkpt lat="48.68678" lon="1.94037">
        <ele>161.16</ele>
        <time>2011-10-22T13:01:15Z</time>
      </trkpt>
      <trkpt lat="48.68682" lon="1.94027">
        <ele>162.6</ele>
        <time>2011-10-22T13:01:16Z</time>
      </trkpt>
      <trkpt lat="48.68686" lon="1.94019">
        <ele>163.56</ele>
        <time>2011-10-22T13:01:17Z</time>
      </trkpt>
      <trkpt lat="48.68691" lon="1.94011">
        <ele>164.52</ele>
        <time>2011-10-22T13:01:18Z</time>
      </trkpt>
      <trkpt lat="48.68695" lon="1.94005">
        <ele>165.48</ele>
        <time>2011-10-22T13:01:19Z</time>
      </trkpt>
      <trkpt lat="48.68698" lon="1.93999">
        <ele>165.48</ele>
        <time>2011-10-22T13:01:20Z</time>
      </trkpt>
      <trkpt lat="48.68708" lon="1.93975">
        <ele>168.85</ele>
        <time>2011-10-22T13:01:24Z</time>
      </trkpt>
      <trkpt lat="48.68723" lon="1.93929">
        <ele>171.73</ele>
        <time>2011-10-22T13:01:36Z</time>
      </trkpt>
      <trkpt lat="48.6873" lon="1.93915">
        <ele>170.77</ele>
        <time>2011-10-22T13:01:40Z</time>
      </trkpt>
      <trkpt lat="48.68742" lon="1.93878">
        <ele>171.25</ele>
        <time>2011-10-22T13:01:50Z</time>
      </trkpt>
      <trkpt lat="48.68749" lon="1.93831">
        <ele>172.21</ele>
        <time>2011-10-22T13:02:01Z</time>
      </trkpt>
      <trkpt lat="48.6875" lon="1.93823">
        <ele>172.21</ele>
        <time>2011-10-22T13:02:03Z</time>
      </trkpt>
      <trkpt lat="48.68776" lon="1.93786">
        <ele>171.25</ele>
        <time>2011-10-22T13:02:13Z</time>
      </trkpt>
      <trkpt lat="48.68788" lon="1.93771">
        <ele>171.25</ele>
        <time>2011-10-22T13:02:16Z</time>
      </trkpt>
      <trkpt lat="48.68791" lon="1.93764">
        <ele>170.77</ele>
        <time>2011-10-22T13:02:17Z</time>
      </trkpt>
      <trkpt lat="48.68794" lon="1.93757">
        <ele>170.77</ele>
        <time>2011-10-22T13:02:18Z</time>
      </trkpt>
      <trkpt lat="48.68795" lon="1.93749">
        <ele>170.77</ele>
        <time>2011-10-22T13:02:19Z</time>
      </trkpt>
      <trkpt lat="48.68797" lon="1.93741">
        <ele>170.77</ele>
        <time>2011-10-22T13:02:20Z</time>
      </trkpt>
      <trkpt lat="48.68799" lon="1.93734">
        <ele>171.25</ele>
        <time>2011-10-22T13:02:21Z</time>
      </trkpt>
      <trkpt lat="48.68801" lon="1.93727">
        <ele>171.25</ele>
        <time>2011-10-22T13:02:22Z</time>
      </trkpt>
      <trkpt lat="48.68802" lon="1.93719">
        <ele>171.73</ele>
        <time>2011-10-22T13:02:23Z</time>
      </trkpt>
      <trkpt lat="48.68803" lon="1.93712">
        <ele>171.73</ele>
        <time>2011-10-22T13:02:24Z</time>
      </trkpt>
      <trkpt lat="48.68803" lon="1.93704">
        <ele>171.73</ele>
        <time>2011-10-22T13:02:25Z</time>
      </trkpt>
      <trkpt lat="48.68801" lon="1.93697">
        <ele>171.73</ele>
        <time>2011-10-22T13:02:26Z</time>
      </trkpt>
      <trkpt lat="48.68797" lon="1.9369">
        <ele>171.25</ele>
        <time>2011-10-22T13:02:27Z</time>
      </trkpt>
      <trkpt lat="48.68791" lon="1.93684">
        <ele>170.29</ele>
        <time>2011-10-22T13:02:28Z</time>
      </trkpt>
      <trkpt lat="48.68785" lon="1.93678">
        <ele>169.81</ele>
        <time>2011-10-22T13:02:29Z</time>
      </trkpt>
      <trkpt lat="48.6878" lon="1.9367">
        <ele>169.81</ele>
        <time>2011-10-22T13:02:30Z</time>
      </trkpt>
      <trkpt lat="48.68776" lon="1.93661">
        <ele>169.33</ele>
        <time>2011-10-22T13:02:31Z</time>
      </trkpt>
      <trkpt lat="48.68773" lon="1.93651">
        <ele>169.81</ele>
        <time>2011-10-22T13:02:32Z</time>
      </trkpt>
      <trkpt lat="48.68773" lon="1.93642">
        <ele>169.81</ele>
        <time>2011-10-22T13:02:33Z</time>
      </trkpt>
      <trkpt lat="48.68774" lon="1.93632">
        <ele>169.81</ele>
        <time>2011-10-22T13:02:34Z</time>
      </trkpt>
      <trkpt lat="48.68776" lon="1.93624">
        <ele>170.29</ele>
        <time>2011-10-22T13:02:35Z</time>
      </trkpt>
      <trkpt lat="48.68791" lon="1.93526">
        <ele>171.25</ele>
        <time>2011-10-22T13:02:47Z</time>
      </trkpt>
      <trkpt lat="48.68796" lon="1.93483">
        <ele>171.25</ele>
        <time>2011-10-22T13:02:52Z</time>
      </trkpt>
      <trkpt lat="48.68798" lon="1.93475">
        <ele>170.77</ele>
        <time>2011-10-22T13:02:53Z</time>
      </trkpt>
      <trkpt lat="48.68801" lon="1.93466">
        <ele>170.29</ele>
        <time>2011-10-22T13:02:54Z</time>
      </trkpt>
      <trkpt lat="48.68805" lon="1.93459">
        <ele>170.29</ele>
        <time>2011-10-22T13:02:55Z</time>
      </trkpt>
      <trkpt lat="48.6881" lon="1.93451">
        <ele>169.81</ele>
        <time>2011-10-22T13:02:56Z</time>
      </trkpt>
      <trkpt lat="48.68824" lon="1.93425">
        <ele>168.85</ele>
        <time>2011-10-22T13:02:59Z</time>
      </trkpt>
      <trkpt lat="48.68828" lon="1.93416">
        <ele>168.85</ele>
        <time>2011-10-22T13:03:00Z</time>
      </trkpt>
      <trkpt lat="48.68833" lon="1.93406">
        <ele>168.37</ele>
        <time>2011-10-22T13:03:01Z</time>
      </trkpt>
      <trkpt lat="48.68866" lon="1.9335">
        <ele>171.25</ele>
        <time>2011-10-22T13:03:08Z</time>
      </trkpt>
      <trkpt lat="48.68872" lon="1.93338">
        <ele>172.21</ele>
        <time>2011-10-22T13:03:10Z</time>
      </trkpt>
      <trkpt lat="48.68878" lon="1.93326">
        <ele>171.73</ele>
        <time>2011-10-22T13:03:12Z</time>
      </trkpt>
      <trkpt lat="48.68881" lon="1.93321">
        <ele>172.69</ele>
        <time>2011-10-22T13:03:13Z</time>
      </trkpt>
      <trkpt lat="48.68883" lon="1.93316">
        <ele>172.69</ele>
        <time>2011-10-22T13:03:14Z</time>
      </trkpt>
      <trkpt lat="48.68902" lon="1.93285">
        <ele>166.93</ele>
        <time>2011-10-22T13:03:22Z</time>
      </trkpt>
      <trkpt lat="48.68904" lon="1.93282">
        <ele>176.06</ele>
        <time>2011-10-22T13:03:23Z</time>
      </trkpt>
      <trkpt lat="48.68907" lon="1.93275">
        <ele>164.52</ele>
        <time>2011-10-22T13:03:25Z</time>
      </trkpt>
      <trkpt lat="48.68908" lon="1.93272">
        <ele>174.62</ele>
        <time>2011-10-22T13:03:26Z</time>
      </trkpt>
      <trkpt lat="48.68925" lon="1.93241">
        <ele>174.62</ele>
        <time>2011-10-22T13:03:38Z</time>
      </trkpt>
      <trkpt lat="48.68934" lon="1.93206">
        <ele>173.66</ele>
        <time>2011-10-22T13:03:46Z</time>
      </trkpt>
      <trkpt lat="48.68971" lon="1.93141">
        <ele>173.17</ele>
        <time>2011-10-22T13:03:57Z</time>
      </trkpt>
      <trkpt lat="48.68974" lon="1.93135">
        <ele>173.17</ele>
        <time>2011-10-22T13:03:58Z</time>
      </trkpt>
      <trkpt lat="48.68978" lon="1.93129">
        <ele>172.69</ele>
        <time>2011-10-22T13:03:59Z</time>
      </trkpt>
      <trkpt lat="48.69" lon="1.93089">
        <ele>170.77</ele>
        <time>2011-10-22T13:04:05Z</time>
      </trkpt>
      <trkpt lat="48.69005" lon="1.93081">
        <ele>170.77</ele>
        <time>2011-10-22T13:04:06Z</time>
      </trkpt>
      <trkpt lat="48.6901" lon="1.93074">
        <ele>169.81</ele>
        <time>2011-10-22T13:04:07Z</time>
      </trkpt>
      <trkpt lat="48.69015" lon="1.93066">
        <ele>169.33</ele>
        <time>2011-10-22T13:04:08Z</time>
      </trkpt>
      <trkpt lat="48.69019" lon="1.93059">
        <ele>168.85</ele>
        <time>2011-10-22T13:04:09Z</time>
      </trkpt>
      <trkpt lat="48.69029" lon="1.93038">
        <ele>165.48</ele>
        <time>2011-10-22T13:04:12Z</time>
      </trkpt>
      <trkpt lat="48.69032" lon="1.93027">
        <ele>162.12</ele>
        <time>2011-10-22T13:04:13Z</time>
      </trkpt>
      <trkpt lat="48.69037" lon="1.93015">
        <ele>159.72</ele>
        <time>2011-10-22T13:04:14Z</time>
      </trkpt>
      <trkpt lat="48.69042" lon="1.93003">
        <ele>157.31</ele>
        <time>2011-10-22T13:04:15Z</time>
      </trkpt>
      <trkpt lat="48.69058" lon="1.92971">
        <ele>157.79</ele>
        <time>2011-10-22T13:04:18Z</time>
      </trkpt>
      <trkpt lat="48.69061" lon="1.92965">
        <ele>159.72</ele>
        <time>2011-10-22T13:04:19Z</time>
      </trkpt>
      <trkpt lat="48.69062" lon="1.92961">
        <ele>161.16</ele>
        <time>2011-10-22T13:04:20Z</time>
      </trkpt>
      <trkpt lat="48.69063" lon="1.9296">
        <ele>161.64</ele>
        <time>2011-10-22T13:04:21Z</time>
      </trkpt>
      <trkpt lat="48.69066" lon="1.92952">
        <ele>162.6</ele>
        <time>2011-10-22T13:04:37Z</time>
      </trkpt>
      <trkpt lat="48.69072" lon="1.92946">
        <ele>165.48</ele>
        <time>2011-10-22T13:04:48Z</time>
      </trkpt>
      <trkpt lat="48.69077" lon="1.92942">
        <ele>167.89</ele>
        <time>2011-10-22T13:05:00Z</time>
      </trkpt>
      <trkpt lat="48.69078" lon="1.92939">
        <ele>168.85</ele>
        <time>2011-10-22T13:05:03Z</time>
      </trkpt>
      <trkpt lat="48.69082" lon="1.9293">
        <ele>170.77</ele>
        <time>2011-10-22T13:05:15Z</time>
      </trkpt>
      <trkpt lat="48.69087" lon="1.92923">
        <ele>171.25</ele>
        <time>2011-10-22T13:05:26Z</time>
      </trkpt>
      <trkpt lat="48.69091" lon="1.92917">
        <ele>172.21</ele>
        <time>2011-10-22T13:05:33Z</time>
      </trkpt>
      <trkpt lat="48.69104" lon="1.929">
        <ele>172.69</ele>
        <time>2011-10-22T13:05:42Z</time>
      </trkpt>
      <trkpt lat="48.69124" lon="1.92862">
        <ele>170.77</ele>
        <time>2011-10-22T13:05:53Z</time>
      </trkpt>
      <trkpt lat="48.69135" lon="1.92843">
        <ele>166.93</ele>
        <time>2011-10-22T13:05:57Z</time>
      </trkpt>
      <trkpt lat="48.69143" lon="1.92834">
        <ele>162.6</ele>
        <time>2011-10-22T13:05:59Z</time>
      </trkpt>
      <trkpt lat="48.69157" lon="1.92812">
        <ele>160.68</ele>
        <time>2011-10-22T13:06:02Z</time>
      </trkpt>
      <trkpt lat="48.69161" lon="1.92805">
        <ele>160.68</ele>
        <time>2011-10-22T13:06:03Z</time>
      </trkpt>
      <trkpt lat="48.69167" lon="1.92787">
        <ele>162.6</ele>
        <time>2011-10-22T13:06:05Z</time>
      </trkpt>
      <trkpt lat="48.6917" lon="1.92775">
        <ele>163.56</ele>
        <time>2011-10-22T13:06:06Z</time>
      </trkpt>
      <trkpt lat="48.69161" lon="1.92736">
        <ele>166.93</ele>
        <time>2011-10-22T13:06:11Z</time>
      </trkpt>
      <trkpt lat="48.69149" lon="1.92695">
        <ele>160.2</ele>
        <time>2011-10-22T13:06:21Z</time>
      </trkpt>
      <trkpt lat="48.69148" lon="1.92693">
        <ele>170.29</ele>
        <time>2011-10-22T13:06:22Z</time>
      </trkpt>
      <trkpt lat="48.69147" lon="1.92689">
        <ele>169.81</ele>
        <time>2011-10-22T13:06:24Z</time>
      </trkpt>
      <trkpt lat="48.69145" lon="1.92687">
        <ele>169.81</ele>
        <time>2011-10-22T13:06:26Z</time>
      </trkpt>
      <trkpt lat="48.69144" lon="1.92685">
        <ele>169.81</ele>
        <time>2011-10-22T13:06:27Z</time>
      </trkpt>
      <trkpt lat="48.69113" lon="1.9266">
        <ele>168.85</ele>
        <time>2011-10-22T13:06:38Z</time>
      </trkpt>
      <trkpt lat="48.69109" lon="1.92657">
        <ele>168.85</ele>
        <time>2011-10-22T13:06:39Z</time>
      </trkpt>
      <trkpt lat="48.69073" lon="1.92631">
        <ele>170.77</ele>
        <time>2011-10-22T13:06:49Z</time>
      </trkpt>
      <trkpt lat="48.69041" lon="1.92601">
        <ele>171.73</ele>
        <time>2011-10-22T13:07:00Z</time>
      </trkpt>
      <trkpt lat="48.69047" lon="1.9255">
        <ele>169.81</ele>
        <time>2011-10-22T13:07:09Z</time>
      </trkpt>
      <trkpt lat="48.69055" lon="1.92531">
        <ele>169.33</ele>
        <time>2011-10-22T13:07:12Z</time>
      </trkpt>
      <trkpt lat="48.69066" lon="1.92505">
        <ele>168.85</ele>
        <time>2011-10-22T13:07:16Z</time>
      </trkpt>
      <trkpt lat="48.69068" lon="1.92498">
        <ele>169.33</ele>
        <time>2011-10-22T13:07:17Z</time>
      </trkpt>
      <trkpt lat="48.69088" lon="1.92424">
        <ele>166.93</ele>
        <time>2011-10-22T13:07:28Z</time>
      </trkpt>
      <trkpt lat="48.69108" lon="1.92367">
        <ele>167.41</ele>
        <time>2011-10-22T13:07:36Z</time>
      </trkpt>
      <trkpt lat="48.69113" lon="1.92345">
        <ele>163.56</ele>
        <time>2011-10-22T13:07:43Z</time>
      </trkpt>
      <trkpt lat="48.69115" lon="1.92341">
        <ele>161.64</ele>
        <time>2011-10-22T13:07:44Z</time>
      </trkpt>
      <trkpt lat="48.69116" lon="1.9232">
        <ele>158.75</ele>
        <time>2011-10-22T13:07:46Z</time>
      </trkpt>
      <trkpt lat="48.69109" lon="1.92275">
        <ele>158.75</ele>
        <time>2011-10-22T13:07:51Z</time>
      </trkpt>
      <trkpt lat="48.69115" lon="1.92241">
        <ele>161.64</ele>
        <time>2011-10-22T13:07:57Z</time>
      </trkpt>
      <trkpt lat="48.69116" lon="1.92235">
        <ele>162.6</ele>
        <time>2011-10-22T13:07:59Z</time>
      </trkpt>
      <trkpt lat="48.69115" lon="1.92229">
        <ele>163.56</ele>
        <time>2011-10-22T13:08:01Z</time>
      </trkpt>
      <trkpt lat="48.6912" lon="1.92209">
        <ele>167.89</ele>
        <time>2011-10-22T13:08:10Z</time>
      </trkpt>
      <trkpt lat="48.69125" lon="1.92176">
        <ele>170.29</ele>
        <time>2011-10-22T13:08:23Z</time>
      </trkpt>
      <trkpt lat="48.69128" lon="1.92138">
        <ele>170.77</ele>
        <time>2011-10-22T13:08:34Z</time>
      </trkpt>
      <trkpt lat="48.6914" lon="1.92095">
        <ele>171.25</ele>
        <time>2011-10-22T13:08:46Z</time>
      </trkpt>
      <trkpt lat="48.69168" lon="1.92044">
        <ele>170.77</ele>
        <time>2011-10-22T13:08:59Z</time>
      </trkpt>
      <trkpt lat="48.69204" lon="1.92044">
        <ele>169.81</ele>
        <time>2011-10-22T13:09:09Z</time>
      </trkpt>
      <trkpt lat="48.69239" lon="1.92051">
        <ele>166.93</ele>
        <time>2011-10-22T13:09:16Z</time>
      </trkpt>
      <trkpt lat="48.69245" lon="1.92049">
        <ele>166.45</ele>
        <time>2011-10-22T13:09:17Z</time>
      </trkpt>
      <trkpt lat="48.69251" lon="1.92045">
        <ele>165.48</ele>
        <time>2011-10-22T13:09:18Z</time>
      </trkpt>
      <trkpt lat="48.69257" lon="1.9204">
        <ele>165</ele>
        <time>2011-10-22T13:09:19Z</time>
      </trkpt>
      <trkpt lat="48.69262" lon="1.92033">
        <ele>165.48</ele>
        <time>2011-10-22T13:09:20Z</time>
      </trkpt>
      <trkpt lat="48.69266" lon="1.92027">
        <ele>166.45</ele>
        <time>2011-10-22T13:09:21Z</time>
      </trkpt>
      <trkpt lat="48.6927" lon="1.92023">
        <ele>166.93</ele>
        <time>2011-10-22T13:09:22Z</time>
      </trkpt>
      <trkpt lat="48.69273" lon="1.92019">
        <ele>168.37</ele>
        <time>2011-10-22T13:09:23Z</time>
      </trkpt>
      <trkpt lat="48.6929" lon="1.91979">
        <ele>169.81</ele>
        <time>2011-10-22T13:09:32Z</time>
      </trkpt>
      <trkpt lat="48.69293" lon="1.91967">
        <ele>169.33</ele>
        <time>2011-10-22T13:09:34Z</time>
      </trkpt>
      <trkpt lat="48.69294" lon="1.9196">
        <ele>169.33</ele>
        <time>2011-10-22T13:09:35Z</time>
      </trkpt>
      <trkpt lat="48.69307" lon="1.91894">
        <ele>171.25</ele>
        <time>2011-10-22T13:09:46Z</time>
      </trkpt>
      <trkpt lat="48.69315" lon="1.91837">
        <ele>172.21</ele>
        <time>2011-10-22T13:09:55Z</time>
      </trkpt>
      <trkpt lat="48.69317" lon="1.91831">
        <ele>172.21</ele>
        <time>2011-10-22T13:09:56Z</time>
      </trkpt>
      <trkpt lat="48.6932" lon="1.91818">
        <ele>172.21</ele>
        <time>2011-10-22T13:09:58Z</time>
      </trkpt>
      <trkpt lat="48.6933" lon="1.91786">
        <ele>172.21</ele>
        <time>2011-10-22T13:10:03Z</time>
      </trkpt>
      <trkpt lat="48.69332" lon="1.9178">
        <ele>172.69</ele>
        <time>2011-10-22T13:10:04Z</time>
      </trkpt>
      <trkpt lat="48.69333" lon="1.91775">
        <ele>172.69</ele>
        <time>2011-10-22T13:10:05Z</time>
      </trkpt>
      <trkpt lat="48.69333" lon="1.91757">
        <ele>171.25</ele>
        <time>2011-10-22T13:10:08Z</time>
      </trkpt>
      <trkpt lat="48.69333" lon="1.9175">
        <ele>170.29</ele>
        <time>2011-10-22T13:10:09Z</time>
      </trkpt>
      <trkpt lat="48.69337" lon="1.91736">
        <ele>168.85</ele>
        <time>2011-10-22T13:10:11Z</time>
      </trkpt>
      <trkpt lat="48.69339" lon="1.91729">
        <ele>167.89</ele>
        <time>2011-10-22T13:10:12Z</time>
      </trkpt>
      <trkpt lat="48.69342" lon="1.91722">
        <ele>167.41</ele>
        <time>2011-10-22T13:10:13Z</time>
      </trkpt>
      <trkpt lat="48.69349" lon="1.91704">
        <ele>165.96</ele>
        <time>2011-10-22T13:10:16Z</time>
      </trkpt>
      <trkpt lat="48.69352" lon="1.91699">
        <ele>165</ele>
        <time>2011-10-22T13:10:17Z</time>
      </trkpt>
      <trkpt lat="48.69353" lon="1.91694">
        <ele>164.04</ele>
        <time>2011-10-22T13:10:18Z</time>
      </trkpt>
      <trkpt lat="48.69354" lon="1.9169">
        <ele>164.04</ele>
        <time>2011-10-22T13:10:19Z</time>
      </trkpt>
      <trkpt lat="48.69352" lon="1.91683">
        <ele>158.6328125</ele>
      </trkpt>
      <trkpt lat="48.69356" lon="1.91654">
        <ele>154.9101563</ele>
      </trkpt>
      <trkpt lat="48.6936" lon="1.91625">
        <ele>151.265625</ele>
      </trkpt>
      <trkpt lat="48.6936" lon="1.916">
        <ele>146.8789063</ele>
      </trkpt>
      <trkpt lat="48.69358" lon="1.91571">
        <ele>141.2578125</ele>
      </trkpt>
      <trkpt lat="48.69357" lon="1.91555">
        <ele>137.6015625</ele>
      </trkpt>
      <trkpt lat="48.69367" lon="1.91526">
        <ele>134.6210938</ele>
      </trkpt>
      <trkpt lat="48.6937" lon="1.9151">
        <ele>132.6367188</ele>
      </trkpt>
      <trkpt lat="48.69373" lon="1.91508">
        <ele>132.671875</ele>
      </trkpt>
      <trkpt lat="48.69386" lon="1.91488">
        <ele>131.28125</ele>
      </trkpt>
      <trkpt lat="48.69419" lon="1.91485">
        <ele>134.015625</ele>
      </trkpt>
      <trkpt lat="48.69448" lon="1.91478">
        <ele>136.3046875</ele>
      </trkpt>
      <trkpt lat="48.69469" lon="1.91466">
        <ele>136.6601563</ele>
      </trkpt>
      <trkpt lat="48.69471" lon="1.91466">
        <ele>136.7226563</ele>
      </trkpt>
      <trkpt lat="48.69483" lon="1.91464">
        <ele>137.1953125</ele>
      </trkpt>
      <trkpt lat="48.69488" lon="1.9144">
        <ele>134.3007813</ele>
      </trkpt>
      <trkpt lat="48.69489" lon="1.91417">
        <ele>131.078125</ele>
      </trkpt>
      <trkpt lat="48.69494" lon="1.914">
        <ele>129.71875</ele>
      </trkpt>
      <trkpt lat="48.69506" lon="1.91384">
        <ele>129.15625</ele>
      </trkpt>
      <trkpt lat="48.6952" lon="1.91382">
        <ele>130.546875</ele>
      </trkpt>
      <trkpt lat="48.69548" lon="1.9136">
        <ele>131.0351563</ele>
      </trkpt>
      <trkpt lat="48.69554" lon="1.91356">
        <ele>130.7734375</ele>
      </trkpt>
      <trkpt lat="48.69578" lon="1.91358">
        <ele>131.9804688</ele>
      </trkpt>
      <trkpt lat="48.69596" lon="1.91375">
        <ele>135.7421875</ele>
      </trkpt>
      <trkpt lat="48.69621" lon="1.91393">
        <ele>140.1835938</ele>
      </trkpt>
      <trkpt lat="48.69662" lon="1.91396">
        <ele>137.8125</ele>
      </trkpt>
      <trkpt lat="48.69691" lon="1.91394">
        <ele>136.3007813</ele>
      </trkpt>
      <trkpt lat="48.69711" lon="1.91395">
        <ele>136.1367188</ele>
      </trkpt>
      <trkpt lat="48.69738" lon="1.91402">
        <ele>136.7148438</ele>
      </trkpt>
      <trkpt lat="48.69743" lon="1.91406">
        <ele>137.4453125</ele>
      </trkpt>
      <trkpt lat="48.69762" lon="1.91408">
        <ele>136.8007813</ele>
      </trkpt>
      <trkpt lat="48.69812" lon="1.91429">
        <ele>134.7890625</ele>
      </trkpt>
      <trkpt lat="48.69822" lon="1.91436">
        <ele>134.4609375</ele>
      </trkpt>
      <trkpt lat="48.69828" lon="1.9144">
        <ele>134.3203125</ele>
      </trkpt>
      <trkpt lat="48.69829" lon="1.91441">
        <ele>134.2539063</ele>
      </trkpt>
      <trkpt lat="48.69847" lon="1.91442">
        <ele>133.328125</ele>
      </trkpt>
      <trkpt lat="48.69858" lon="1.91429">
        <ele>132.296875</ele>
      </trkpt>
      <trkpt lat="48.69865" lon="1.91408">
        <ele>130.7929688</ele>
      </trkpt>
      <trkpt lat="48.69872" lon="1.91368">
        <ele>129.5664063</ele>
      </trkpt>
      <trkpt lat="48.69872" lon="1.91327">
        <ele>127.9648438</ele>
      </trkpt>
      <trkpt lat="48.69874" lon="1.91279">
        <ele>128.7070313</ele>
      </trkpt>
      <trkpt lat="48.69881" lon="1.91241">
        <ele>129.9375</ele>
      </trkpt>
      <trkpt lat="48.69892" lon="1.91225">
        <ele>129.5625</ele>
      </trkpt>
      <trkpt lat="48.69894" lon="1.91225">
        <ele>129.6132813</ele>
      </trkpt>
      <trkpt lat="48.69913" lon="1.91223">
        <ele>132.3242188</ele>
      </trkpt>
      <trkpt lat="48.69928" lon="1.91205">
        <ele>133.1484375</ele>
      </trkpt>
      <trkpt lat="48.69932" lon="1.91169">
        <ele>131.6289063</ele>
      </trkpt>
      <trkpt lat="48.69928" lon="1.91142">
        <ele>130.9296875</ele>
      </trkpt>
      <trkpt lat="48.69928" lon="1.9111">
        <ele>131.5820313</ele>
      </trkpt>
      <trkpt lat="48.69936" lon="1.91027">
        <ele>133.125</ele>
      </trkpt>
      <trkpt lat="48.69943" lon="1.90978">
        <ele>133.5</ele>
      </trkpt>
      <trkpt lat="48.69948" lon="1.90955">
        <ele>133.9140625</ele>
      </trkpt>
      <trkpt lat="48.69952" lon="1.90931">
        <ele>134.421875</ele>
      </trkpt>
      <trkpt lat="48.69952" lon="1.90935">
        <ele>134.6210938</ele>
      </trkpt>
      <trkpt lat="48.6996" lon="1.90947">
        <ele>136.3867188</ele>
      </trkpt>
      <trkpt lat="48.6996" lon="1.90947">
        <ele>136.3867188</ele>
      </trkpt>
      <trkpt lat="48.69971" lon="1.90963">
        <ele>138.7148438</ele>
      </trkpt>
      <trkpt lat="48.69971" lon="1.90969">
        <ele>138.8046875</ele>
      </trkpt>
      <trkpt lat="48.69971" lon="1.90996">
        <ele>140.3203125</ele>
      </trkpt>
      <trkpt lat="48.69979" lon="1.91032">
        <ele>143.9921875</ele>
      </trkpt>
      <trkpt lat="48.69984" lon="1.91067">
        <ele>146.1484375</ele>
      </trkpt>
      <trkpt lat="48.69991" lon="1.91106">
        <ele>147.9804688</ele>
      </trkpt>
      <trkpt lat="48.69995" lon="1.91128">
        <ele>147.9960938</ele>
      </trkpt>
      <trkpt lat="48.70005" lon="1.91153">
        <ele>150.4492188</ele>
      </trkpt>
      <trkpt lat="48.70006" lon="1.91156">
        <ele>150.6289063</ele>
      </trkpt>
      <trkpt lat="48.70015" lon="1.91178">
        <ele>151.9179688</ele>
      </trkpt>
      <trkpt lat="48.70044" lon="1.91196">
        <ele>159.4570313</ele>
      </trkpt>
      <trkpt lat="48.70065" lon="1.91203">
        <ele>164.8515625</ele>
      </trkpt>
      <trkpt lat="48.70075" lon="1.91227">
        <ele>168.6328125</ele>
      </trkpt>
      <trkpt lat="48.70075" lon="1.91232">
        <ele>169.0195313</ele>
      </trkpt>
      <trkpt lat="48.70075" lon="1.91251">
        <ele>170.6367188</ele>
      </trkpt>
      <trkpt lat="48.70076" lon="1.91257">
        <ele>171.1171875</ele>
      </trkpt>
      <trkpt lat="48.70076" lon="1.91276">
        <ele>172.2617188</ele>
      </trkpt>
      <trkpt lat="48.70076" lon="1.9128">
        <ele>172.4179688</ele>
      </trkpt>
      <trkpt lat="48.70072" lon="1.91299">
        <ele>172.765625</ele>
      </trkpt>
      <trkpt lat="48.70093" lon="1.91299">
        <ele>174.1328125</ele>
      </trkpt>
      <trkpt lat="48.70102" lon="1.91301">
        <ele>174.5351563</ele>
      </trkpt>
      <trkpt lat="48.70106" lon="1.91332">
        <ele>175.6875</ele>
      </trkpt>
      <trkpt lat="48.70127" lon="1.91363">
        <ele>176</ele>
      </trkpt>
      <trkpt lat="48.70145" lon="1.91385">
        <ele>176</ele>
      </trkpt>
      <trkpt lat="48.70266" lon="1.91466">
        <ele>175</ele>
      </trkpt>
      <trkpt lat="48.70267" lon="1.91471">
        <ele>175</ele>
      </trkpt>
      <trkpt lat="48.70348" lon="1.91517">
        <ele>176</ele>
      </trkpt>
      <trkpt lat="48.70421" lon="1.91567">
        <ele>175</ele>
      </trkpt>
      <trkpt lat="48.7046" lon="1.9159">
        <ele>174.546875</ele>
      </trkpt>
      <trkpt lat="48.70428" lon="1.91658">
        <ele>174</ele>
      </trkpt>
      <trkpt lat="48.70395" lon="1.91722">
        <ele>175</ele>
      </trkpt>
      <trkpt lat="48.70377" lon="1.91769">
        <ele>175</ele>
      </trkpt>
      <trkpt lat="48.70356" lon="1.91816">
        <ele>175</ele>
      </trkpt>
      <trkpt lat="48.70358" lon="1.91818">
        <ele>175</ele>
      </trkpt>
      <trkpt lat="48.70332" lon="1.91871">
        <ele>175</ele>
      </trkpt>
      <trkpt lat="48.70338" lon="1.91907">
        <ele>177.02</ele>
        <time>2011-10-22T13:26:16Z</time>
      </trkpt>
      <trkpt lat="48.70344" lon="1.9191">
        <ele>177.98</ele>
        <time>2011-10-22T13:26:17Z</time>
      </trkpt>
      <trkpt lat="48.70349" lon="1.91914">
        <ele>177.5</ele>
        <time>2011-10-22T13:26:18Z</time>
      </trkpt>
      <trkpt lat="48.70409" lon="1.91957">
        <ele>177.5</ele>
        <time>2011-10-22T13:26:30Z</time>
      </trkpt>
      <trkpt lat="48.70429" lon="1.91969">
        <ele>177.5</ele>
        <time>2011-10-22T13:26:34Z</time>
      </trkpt>
      <trkpt lat="48.70463" lon="1.91995">
        <ele>177.02</ele>
        <time>2011-10-22T13:26:44Z</time>
      </trkpt>
      <trkpt lat="48.70481" lon="1.92007">
        <ele>177.02</ele>
        <time>2011-10-22T13:26:48Z</time>
      </trkpt>
      <trkpt lat="48.70532" lon="1.92038">
        <ele>176.06</ele>
        <time>2011-10-22T13:26:59Z</time>
      </trkpt>
      <trkpt lat="48.70538" lon="1.92041">
        <ele>176.06</ele>
        <time>2011-10-22T13:27:00Z</time>
      </trkpt>
      <trkpt lat="48.70545" lon="1.92045">
        <ele>175.58</ele>
        <time>2011-10-22T13:27:01Z</time>
      </trkpt>
      <trkpt lat="48.70565" lon="1.92057">
        <ele>175.1</ele>
        <time>2011-10-22T13:27:05Z</time>
      </trkpt>
      <trkpt lat="48.70569" lon="1.92056">
        <ele>175.1</ele>
        <time>2011-10-22T13:27:06Z</time>
      </trkpt>
      <trkpt lat="48.70573" lon="1.92054">
        <ele>174.62</ele>
        <time>2011-10-22T13:27:07Z</time>
      </trkpt>
      <trkpt lat="48.70585" lon="1.92048">
        <ele>174.14</ele>
        <time>2011-10-22T13:27:09Z</time>
      </trkpt>
      <trkpt lat="48.7059" lon="1.92045">
        <ele>174.14</ele>
        <time>2011-10-22T13:27:10Z</time>
      </trkpt>
      <trkpt lat="48.70594" lon="1.92042">
        <ele>173.66</ele>
        <time>2011-10-22T13:27:11Z</time>
      </trkpt>
      <trkpt lat="48.70598" lon="1.92041">
        <ele>173.66</ele>
        <time>2011-10-22T13:27:12Z</time>
      </trkpt>
      <trkpt lat="48.70613" lon="1.92038">
        <ele>174.14</ele>
        <time>2011-10-22T13:27:19Z</time>
      </trkpt>
      <trkpt lat="48.70625" lon="1.92044">
        <ele>173.17</ele>
        <time>2011-10-22T13:27:28Z</time>
      </trkpt>
      <trkpt lat="48.70632" lon="1.92046">
        <ele>173.66</ele>
        <time>2011-10-22T13:27:38Z</time>
      </trkpt>
      <trkpt lat="48.70635" lon="1.92046">
        <ele>173.66</ele>
        <time>2011-10-22T13:27:39Z</time>
      </trkpt>
      <trkpt lat="48.70638" lon="1.92047">
        <ele>173.66</ele>
        <time>2011-10-22T13:27:40Z</time>
      </trkpt>
      <trkpt lat="48.70641" lon="1.92047">
        <ele>173.66</ele>
        <time>2011-10-22T13:27:41Z</time>
      </trkpt>
      <trkpt lat="48.70644" lon="1.92047">
        <ele>173.66</ele>
        <time>2011-10-22T13:27:42Z</time>
      </trkpt>
      <trkpt lat="48.70646" lon="1.92047">
        <ele>173.66</ele>
        <time>2011-10-22T13:27:43Z</time>
      </trkpt>
      <trkpt lat="48.7066" lon="1.92054">
        <ele>173.66</ele>
        <time>2011-10-22T13:27:54Z</time>
      </trkpt>
      <trkpt lat="48.70662" lon="1.92057">
        <ele>173.66</ele>
        <time>2011-10-22T13:27:57Z</time>
      </trkpt>
      <trkpt lat="48.70662" lon="1.92059">
        <ele>173.17</ele>
        <time>2011-10-22T13:28:05Z</time>
      </trkpt>
      <trkpt lat="48.70662" lon="1.92061">
        <ele>173.66</ele>
        <time>2011-10-22T13:28:06Z</time>
      </trkpt>
      <trkpt lat="48.70662" lon="1.92071">
        <ele>172.69</ele>
        <time>2011-10-22T13:28:09Z</time>
      </trkpt>
      <trkpt lat="48.70661" lon="1.92075">
        <ele>172.69</ele>
        <time>2011-10-22T13:28:10Z</time>
      </trkpt>
      <trkpt lat="48.70664" lon="1.92143">
        <ele>173.66</ele>
        <time>2011-10-22T13:28:21Z</time>
      </trkpt>
      <trkpt lat="48.70665" lon="1.9215">
        <ele>174.14</ele>
        <time>2011-10-22T13:28:22Z</time>
      </trkpt>
      <trkpt lat="48.70702" lon="1.92271">
        <ele>173.17</ele>
        <time>2011-10-22T13:28:40Z</time>
      </trkpt>
      <trkpt lat="48.70723" lon="1.92342">
        <ele>173.66</ele>
        <time>2011-10-22T13:28:51Z</time>
      </trkpt>
      <trkpt lat="48.70725" lon="1.92348">
        <ele>173.66</ele>
        <time>2011-10-22T13:28:52Z</time>
      </trkpt>
      <trkpt lat="48.70727" lon="1.92355">
        <ele>173.17</ele>
        <time>2011-10-22T13:28:53Z</time>
      </trkpt>
      <trkpt lat="48.7074" lon="1.92392">
        <ele>173.66</ele>
        <time>2011-10-22T13:28:59Z</time>
      </trkpt>
      <trkpt lat="48.70743" lon="1.92396">
        <ele>173.66</ele>
        <time>2011-10-22T13:29:00Z</time>
      </trkpt>
      <trkpt lat="48.70746" lon="1.92396">
        <ele>173.17</ele>
        <time>2011-10-22T13:29:01Z</time>
      </trkpt>
      <trkpt lat="48.70749" lon="1.92392">
        <ele>173.17</ele>
        <time>2011-10-22T13:29:02Z</time>
      </trkpt>
      <trkpt lat="48.70752" lon="1.92388">
        <ele>173.17</ele>
        <time>2011-10-22T13:29:03Z</time>
      </trkpt>
      <trkpt lat="48.70754" lon="1.92381">
        <ele>173.17</ele>
        <time>2011-10-22T13:29:04Z</time>
      </trkpt>
      <trkpt lat="48.70755" lon="1.92375">
        <ele>173.17</ele>
        <time>2011-10-22T13:29:05Z</time>
      </trkpt>
      <trkpt lat="48.70757" lon="1.92369">
        <ele>172.69</ele>
        <time>2011-10-22T13:29:06Z</time>
      </trkpt>
      <trkpt lat="48.70761" lon="1.9235">
        <ele>173.17</ele>
        <time>2011-10-22T13:29:09Z</time>
      </trkpt>
      <trkpt lat="48.7077" lon="1.92324">
        <ele>171.73</ele>
        <time>2011-10-22T13:29:13Z</time>
      </trkpt>
      <trkpt lat="48.70773" lon="1.92319">
        <ele>171.25</ele>
        <time>2011-10-22T13:29:14Z</time>
      </trkpt>
      <trkpt lat="48.70776" lon="1.92315">
        <ele>170.77</ele>
        <time>2011-10-22T13:29:15Z</time>
      </trkpt>
      <trkpt lat="48.7078" lon="1.92314">
        <ele>170.77</ele>
        <time>2011-10-22T13:29:16Z</time>
      </trkpt>
      <trkpt lat="48.70785" lon="1.92314">
        <ele>170.29</ele>
        <time>2011-10-22T13:29:17Z</time>
      </trkpt>
      <trkpt lat="48.70789" lon="1.92317">
        <ele>169.81</ele>
        <time>2011-10-22T13:29:18Z</time>
      </trkpt>
      <trkpt lat="48.70794" lon="1.9232">
        <ele>169.81</ele>
        <time>2011-10-22T13:29:19Z</time>
      </trkpt>
      <trkpt lat="48.70798" lon="1.92324">
        <ele>169.81</ele>
        <time>2011-10-22T13:29:20Z</time>
      </trkpt>
      <trkpt lat="48.70803" lon="1.92328">
        <ele>169.33</ele>
        <time>2011-10-22T13:29:21Z</time>
      </trkpt>
      <trkpt lat="48.70808" lon="1.92331">
        <ele>170.29</ele>
        <time>2011-10-22T13:29:22Z</time>
      </trkpt>
      <trkpt lat="48.70813" lon="1.92333">
        <ele>169.81</ele>
        <time>2011-10-22T13:29:23Z</time>
      </trkpt>
      <trkpt lat="48.70837" lon="1.92342">
        <ele>170.77</ele>
        <time>2011-10-22T13:29:28Z</time>
      </trkpt>
      <trkpt lat="48.70841" lon="1.92344">
        <ele>170.77</ele>
        <time>2011-10-22T13:29:29Z</time>
      </trkpt>
      <trkpt lat="48.70844" lon="1.92344">
        <ele>170.77</ele>
        <time>2011-10-22T13:29:30Z</time>
      </trkpt>
      <trkpt lat="48.70848" lon="1.92345">
        <ele>171.25</ele>
        <time>2011-10-22T13:29:31Z</time>
      </trkpt>
      <trkpt lat="48.7085" lon="1.92346">
        <ele>170.77</ele>
        <time>2011-10-22T13:29:32Z</time>
      </trkpt>
      <trkpt lat="48.70866" lon="1.92355">
        <ele>171.73</ele>
        <time>2011-10-22T13:29:38Z</time>
      </trkpt>
      <trkpt lat="48.70868" lon="1.92358">
        <ele>171.73</ele>
        <time>2011-10-22T13:29:39Z</time>
      </trkpt>
      <trkpt lat="48.70884" lon="1.92408">
        <ele>172.21</ele>
        <time>2011-10-22T13:29:49Z</time>
      </trkpt>
      <trkpt lat="48.70885" lon="1.92414">
        <ele>172.21</ele>
        <time>2011-10-22T13:29:50Z</time>
      </trkpt>
      <trkpt lat="48.70886" lon="1.92421">
        <ele>171.73</ele>
        <time>2011-10-22T13:29:51Z</time>
      </trkpt>
      <trkpt lat="48.70887" lon="1.92428">
        <ele>171.73</ele>
        <time>2011-10-22T13:29:52Z</time>
      </trkpt>
      <trkpt lat="48.7089" lon="1.92442">
        <ele>171.73</ele>
        <time>2011-10-22T13:29:54Z</time>
      </trkpt>
      <trkpt lat="48.70891" lon="1.9245">
        <ele>171.25</ele>
        <time>2011-10-22T13:29:55Z</time>
      </trkpt>
      <trkpt lat="48.70893" lon="1.92474">
        <ele>170.77</ele>
        <time>2011-10-22T13:29:58Z</time>
      </trkpt>
      <trkpt lat="48.70893" lon="1.92482">
        <ele>170.29</ele>
        <time>2011-10-22T13:29:59Z</time>
      </trkpt>
      <trkpt lat="48.70894" lon="1.92489">
        <ele>170.29</ele>
        <time>2011-10-22T13:30:00Z</time>
      </trkpt>
      <trkpt lat="48.70895" lon="1.92497">
        <ele>169.81</ele>
        <time>2011-10-22T13:30:01Z</time>
      </trkpt>
      <trkpt lat="48.70896" lon="1.92505">
        <ele>170.29</ele>
        <time>2011-10-22T13:30:02Z</time>
      </trkpt>
      <trkpt lat="48.70898" lon="1.92528">
        <ele>170.29</ele>
        <time>2011-10-22T13:30:05Z</time>
      </trkpt>
      <trkpt lat="48.709" lon="1.92535">
        <ele>170.77</ele>
        <time>2011-10-22T13:30:06Z</time>
      </trkpt>
      <trkpt lat="48.70902" lon="1.92541">
        <ele>170.29</ele>
        <time>2011-10-22T13:30:07Z</time>
      </trkpt>
      <trkpt lat="48.70906" lon="1.9256">
        <ele>170.77</ele>
        <time>2011-10-22T13:30:10Z</time>
      </trkpt>
      <trkpt lat="48.70908" lon="1.92567">
        <ele>171.25</ele>
        <time>2011-10-22T13:30:11Z</time>
      </trkpt>
      <trkpt lat="48.7091" lon="1.92574">
        <ele>170.77</ele>
        <time>2011-10-22T13:30:12Z</time>
      </trkpt>
      <trkpt lat="48.70917" lon="1.92594">
        <ele>170.77</ele>
        <time>2011-10-22T13:30:15Z</time>
      </trkpt>
      <trkpt lat="48.7092" lon="1.926">
        <ele>170.29</ele>
        <time>2011-10-22T13:30:16Z</time>
      </trkpt>
      <trkpt lat="48.70923" lon="1.92606">
        <ele>170.29</ele>
        <time>2011-10-22T13:30:17Z</time>
      </trkpt>
      <trkpt lat="48.70926" lon="1.92612">
        <ele>170.29</ele>
        <time>2011-10-22T13:30:18Z</time>
      </trkpt>
      <trkpt lat="48.70929" lon="1.92617">
        <ele>170.77</ele>
        <time>2011-10-22T13:30:19Z</time>
      </trkpt>
      <trkpt lat="48.70932" lon="1.92622">
        <ele>169.81</ele>
        <time>2011-10-22T13:30:20Z</time>
      </trkpt>
      <trkpt lat="48.70936" lon="1.92626">
        <ele>170.29</ele>
        <time>2011-10-22T13:30:21Z</time>
      </trkpt>
      <trkpt lat="48.70955" lon="1.92641">
        <ele>170.29</ele>
        <time>2011-10-22T13:30:25Z</time>
      </trkpt>
      <trkpt lat="48.7096" lon="1.92643">
        <ele>170.77</ele>
        <time>2011-10-22T13:30:26Z</time>
      </trkpt>
      <trkpt lat="48.70963" lon="1.92645">
        <ele>170.77</ele>
        <time>2011-10-22T13:30:27Z</time>
      </trkpt>
      <trkpt lat="48.71003" lon="1.92651">
        <ele>171.73</ele>
        <time>2011-10-22T13:30:38Z</time>
      </trkpt>
      <trkpt lat="48.71005" lon="1.92649">
        <ele>172.21</ele>
        <time>2011-10-22T13:30:39Z</time>
      </trkpt>
      <trkpt lat="48.71008" lon="1.92647">
        <ele>171.73</ele>
        <time>2011-10-22T13:30:40Z</time>
      </trkpt>
      <trkpt lat="48.71015" lon="1.9264">
        <ele>171.73</ele>
        <time>2011-10-22T13:30:43Z</time>
      </trkpt>
      <trkpt lat="48.71018" lon="1.92639">
        <ele>171.73</ele>
        <time>2011-10-22T13:30:44Z</time>
      </trkpt>
      <trkpt lat="48.71045" lon="1.92641">
        <ele>172.21</ele>
        <time>2011-10-22T13:30:54Z</time>
      </trkpt>
      <trkpt lat="48.71083" lon="1.92636">
        <ele>172.21</ele>
        <time>2011-10-22T13:31:06Z</time>
      </trkpt>
      <trkpt lat="48.71144" lon="1.92622">
        <ele>171.25</ele>
        <time>2011-10-22T13:31:21Z</time>
      </trkpt>
      <trkpt lat="48.71212" lon="1.92602">
        <ele>170.77</ele>
        <time>2011-10-22T13:31:37Z</time>
      </trkpt>
      <trkpt lat="48.71264" lon="1.92583">
        <ele>171.25</ele>
        <time>2011-10-22T13:31:51Z</time>
      </trkpt>
      <trkpt lat="48.71292" lon="1.9257">
        <ele>171.73</ele>
        <time>2011-10-22T13:32:04Z</time>
      </trkpt>
      <trkpt lat="48.71293" lon="1.92569">
        <ele>171.25</ele>
        <time>2011-10-22T13:32:06Z</time>
      </trkpt>
      <trkpt lat="48.71294" lon="1.92568">
        <ele>171.25</ele>
        <time>2011-10-22T13:32:08Z</time>
      </trkpt>
      <trkpt lat="48.71294" lon="1.92568">
        <ele>171.73</ele>
        <time>2011-10-22T13:32:09Z</time>
      </trkpt>
      <trkpt lat="48.71298" lon="1.92565">
        <ele>171.25</ele>
        <time>2011-10-22T13:32:14Z</time>
      </trkpt>
      <trkpt lat="48.71299" lon="1.92565">
        <ele>171.25</ele>
        <time>2011-10-22T13:32:15Z</time>
      </trkpt>
      <trkpt lat="48.71301" lon="1.92563">
        <ele>170.77</ele>
        <time>2011-10-22T13:32:16Z</time>
      </trkpt>
      <trkpt lat="48.71302" lon="1.92562">
        <ele>171.25</ele>
        <time>2011-10-22T13:32:17Z</time>
      </trkpt>
      <trkpt lat="48.71305" lon="1.9256">
        <ele>171.25</ele>
        <time>2011-10-22T13:32:18Z</time>
      </trkpt>
      <trkpt lat="48.71307" lon="1.92559">
        <ele>171.25</ele>
        <time>2011-10-22T13:32:19Z</time>
      </trkpt>
      <trkpt lat="48.7131" lon="1.92557">
        <ele>171.25</ele>
        <time>2011-10-22T13:32:20Z</time>
      </trkpt>
      <trkpt lat="48.71313" lon="1.92555">
        <ele>171.25</ele>
        <time>2011-10-22T13:32:21Z</time>
      </trkpt>
      <trkpt lat="48.71355" lon="1.92531">
        <ele>171.25</ele>
        <time>2011-10-22T13:32:33Z</time>
      </trkpt>
      <trkpt lat="48.71401" lon="1.92509">
        <ele>172.21</ele>
        <time>2011-10-22T13:32:47Z</time>
      </trkpt>
      <trkpt lat="48.71407" lon="1.92549">
        <ele>171.73</ele>
        <time>2011-10-22T13:32:55Z</time>
      </trkpt>
      <trkpt lat="48.71408" lon="1.92556">
        <ele>172.21</ele>
        <time>2011-10-22T13:32:56Z</time>
      </trkpt>
      <trkpt lat="48.71409" lon="1.92579">
        <ele>172.69</ele>
        <time>2011-10-22T13:32:59Z</time>
      </trkpt>
      <trkpt lat="48.7142" lon="1.92682">
        <ele>172.69</ele>
        <time>2011-10-22T13:33:14Z</time>
      </trkpt>
      <trkpt lat="48.71426" lon="1.92751">
        <ele>172.21</ele>
        <time>2011-10-22T13:33:26Z</time>
      </trkpt>
      <trkpt lat="48.71427" lon="1.92752">
        <ele>172.69</ele>
        <time>2011-10-22T13:33:39Z</time>
      </trkpt>
      <trkpt lat="48.71427" lon="1.92752">
        <ele>172.21</ele>
        <time>2011-10-22T13:34:07Z</time>
      </trkpt>
      <trkpt lat="48.71427" lon="1.92752">
        <ele>172.69</ele>
        <time>2011-10-22T13:34:30Z</time>
      </trkpt>
      <trkpt lat="48.71427" lon="1.92752">
        <ele>172.21</ele>
        <time>2011-10-22T13:35:08Z</time>
      </trkpt>
      <trkpt lat="48.71427" lon="1.92752">
        <ele>172.69</ele>
        <time>2011-10-22T13:35:43Z</time>
      </trkpt>
      <trkpt lat="48.71427" lon="1.92752">
        <ele>172.21</ele>
        <time>2011-10-22T13:36:08Z</time>
      </trkpt>
      <trkpt lat="48.71427" lon="1.92752">
        <ele>172.21</ele>
        <time>2011-10-22T13:36:35Z</time>
      </trkpt>
      <trkpt lat="48.71427" lon="1.92752">
        <ele>172.69</ele>
        <time>2011-10-22T13:37:06Z</time>
      </trkpt>
      <trkpt lat="48.71427" lon="1.92752">
        <ele>173.17</ele>
        <time>2011-10-22T13:37:37Z</time>
      </trkpt>
      <trkpt lat="48.71427" lon="1.92752">
        <ele>165.96</ele>
        <time>2011-10-22T13:37:39Z</time>
      </trkpt>
      <trkpt lat="48.71427" lon="1.92752">
        <ele>175.1</ele>
        <time>2011-10-22T13:37:41Z</time>
      </trkpt>
      <trkpt lat="48.71427" lon="1.92752">
        <ele>172.69</ele>
        <time>2011-10-22T13:37:42Z</time>
      </trkpt>
      <trkpt lat="48.71426" lon="1.92753">
        <ele>172.21</ele>
        <time>2011-10-22T13:37:53Z</time>
      </trkpt>
      <trkpt lat="48.71423" lon="1.92756">
        <ele>172.21</ele>
        <time>2011-10-22T13:37:56Z</time>
      </trkpt>
      <trkpt lat="48.71434" lon="1.92745">
        <ele>170.4882813</ele>
      </trkpt>
      <trkpt lat="48.71469" lon="1.92805">
        <ele>171</ele>
      </trkpt>
      <trkpt lat="48.71537" lon="1.92919">
        <ele>168.4882813</ele>
      </trkpt>
      <trkpt lat="48.71548" lon="1.92983">
        <ele>166.8085938</ele>
      </trkpt>
      <trkpt lat="48.71555" lon="1.93012">
        <ele>165.5976563</ele>
      </trkpt>
      <trkpt lat="48.71562" lon="1.93085">
        <ele>162.2421875</ele>
      </trkpt>
      <trkpt lat="48.71561" lon="1.93087">
        <ele>162.3242188</ele>
      </trkpt>
      <trkpt lat="48.71545" lon="1.93235">
        <ele>161.2421875</ele>
      </trkpt>
      <trkpt lat="48.71545" lon="1.93242">
        <ele>161.1171875</ele>
      </trkpt>
      <trkpt lat="48.71558" lon="1.93281">
        <ele>160.609375</ele>
      </trkpt>
      <trkpt lat="48.71598" lon="1.93368">
        <ele>158.640625</ele>
      </trkpt>
      <trkpt lat="48.71633" lon="1.93514">
        <ele>156.0546875</ele>
      </trkpt>
      <trkpt lat="48.71663" lon="1.93637">
        <ele>150.2421875</ele>
      </trkpt>
      <trkpt lat="48.71698" lon="1.93689">
        <ele>141.8710938</ele>
      </trkpt>
      <trkpt lat="48.71697" lon="1.93736">
        <ele>136.0429688</ele>
      </trkpt>
      <trkpt lat="48.71709" lon="1.93786">
        <ele>132.8671875</ele>
      </trkpt>
      <trkpt lat="48.71722" lon="1.93816">
        <ele>132.2109375</ele>
      </trkpt>
      <trkpt lat="48.71776" lon="1.93924">
        <ele>130</ele>
      </trkpt>
      <trkpt lat="48.71829" lon="1.93947">
        <ele>126.6523438</ele>
      </trkpt>
      <trkpt lat="48.71836" lon="1.93951">
        <ele>125.6367188</ele>
      </trkpt>
      <trkpt lat="48.71887" lon="1.93973">
        <ele>118.5273438</ele>
      </trkpt>
      <trkpt lat="48.71888" lon="1.93975">
        <ele>118.4257813</ele>
      </trkpt>
      <trkpt lat="48.71912" lon="1.93985">
        <ele>115.8632813</ele>
      </trkpt>
      <trkpt lat="48.71916" lon="1.93989">
        <ele>115.4765625</ele>
      </trkpt>
      <trkpt lat="48.71941" lon="1.94027">
        <ele>112.7578125</ele>
      </trkpt>
      <trkpt lat="48.71948" lon="1.94041">
        <ele>112.078125</ele>
      </trkpt>
      <trkpt lat="48.71965" lon="1.94035">
        <ele>111.3789063</ele>
      </trkpt>
      <trkpt lat="48.71985" lon="1.94029">
        <ele>110.6679688</ele>
      </trkpt>
      <trkpt lat="48.7199" lon="1.94026">
        <ele>110.5039063</ele>
      </trkpt>
      <trkpt lat="48.71992" lon="1.94021">
        <ele>110.4101563</ele>
      </trkpt>
      <trkpt lat="48.71992" lon="1.94023">
        <ele>110.4414063</ele>
      </trkpt>
      <trkpt lat="48.72016" lon="1.94018">
        <ele>110.8671875</ele>
      </trkpt>
      <trkpt lat="48.72018" lon="1.94017">
        <ele>110.9960938</ele>
      </trkpt>
      <trkpt lat="48.72026" lon="1.94014">
        <ele>111.578125</ele>
      </trkpt>
      <trkpt lat="48.72027" lon="1.94052">
        <ele>111.59375</ele>
      </trkpt>
      <trkpt lat="48.72022" lon="1.94106">
        <ele>110.7070313</ele>
      </trkpt>
      <trkpt lat="48.72016" lon="1.9416">
        <ele>111.4335938</ele>
      </trkpt>
      <trkpt lat="48.72016" lon="1.94205">
        <ele>111.3515625</ele>
      </trkpt>
      <trkpt lat="48.72023" lon="1.94248">
        <ele>111.9335938</ele>
      </trkpt>
      <trkpt lat="48.7205" lon="1.94337">
        <ele>112.3242188</ele>
      </trkpt>
      <trkpt lat="48.72061" lon="1.94372">
        <ele>112.4140625</ele>
      </trkpt>
      <trkpt lat="48.72076" lon="1.94469">
        <ele>111.5429688</ele>
      </trkpt>
      <trkpt lat="48.72077" lon="1.94504">
        <ele>111.0078125</ele>
      </trkpt>
      <trkpt lat="48.72077" lon="1.9451">
        <ele>110.8828125</ele>
      </trkpt>
      <trkpt lat="48.72084" lon="1.94559">
        <ele>109.9570313</ele>
      </trkpt>
      <trkpt lat="48.72132" lon="1.94752">
        <ele>109.2695313</ele>
      </trkpt>
      <trkpt lat="48.72141" lon="1.94811">
        <ele>108.9648438</ele>
      </trkpt>
      <trkpt lat="48.72141" lon="1.94813">
        <ele>108.96875</ele>
      </trkpt>
      <trkpt lat="48.72139" lon="1.94834">
        <ele>109</ele>
      </trkpt>
      <trkpt lat="48.72139" lon="1.94834">
        <ele>109</ele>
      </trkpt>
      <trkpt lat="48.72167" lon="1.94882">
        <ele>110.8710938</ele>
      </trkpt>
      <trkpt lat="48.7217" lon="1.94888">
        <ele>111</ele>
      </trkpt>
      <trkpt lat="48.72185" lon="1.94967">
        <ele>112.5078125</ele>
      </trkpt>
      <trkpt lat="48.72219" lon="1.95136">
        <ele>114.2382813</ele>
      </trkpt>
      <trkpt lat="48.72219" lon="1.95137">
        <ele>114.2382813</ele>
      </trkpt>
      <trkpt lat="48.72218" lon="1.95188">
        <ele>113.1445313</ele>
      </trkpt>
      <trkpt lat="48.72215" lon="1.95239">
        <ele>112.8515625</ele>
      </trkpt>
      <trkpt lat="48.72214" lon="1.95246">
        <ele>112.6640625</ele>
      </trkpt>
      <trkpt lat="48.72213" lon="1.95273">
        <ele>112.1054688</ele>
      </trkpt>
      <trkpt lat="48.72216" lon="1.95275">
        <ele>112.3007813</ele>
      </trkpt>
      <trkpt lat="48.72215" lon="1.95275">
        <ele>112.234375</ele>
      </trkpt>
      <trkpt lat="48.72241" lon="1.95401">
        <ele>112.3867188</ele>
      </trkpt>
      <trkpt lat="48.72248" lon="1.95419">
        <ele>112.3398438</ele>
      </trkpt>
      <trkpt lat="48.72313" lon="1.95459">
        <ele>112.1796875</ele>
      </trkpt>
      <trkpt lat="48.72348" lon="1.95456">
        <ele>112.3007813</ele>
      </trkpt>
      <trkpt lat="48.72393" lon="1.95579">
        <ele>110.2734375</ele>
      </trkpt>
      <trkpt lat="48.72392" lon="1.95588">
        <ele>110.8710938</ele>
      </trkpt>
      <trkpt lat="48.72397" lon="1.95619">
        <ele>112.921875</ele>
      </trkpt>
      <trkpt lat="48.72372" lon="1.95637">
        <ele>111.7695313</ele>
      </trkpt>
      <trkpt lat="48.72332" lon="1.95695">
        <ele>110.703125</ele>
      </trkpt>
      <trkpt lat="48.72319" lon="1.95731">
        <ele>111.1640625</ele>
      </trkpt>
      <trkpt lat="48.72323" lon="1.95735">
        <ele>106.36</ele>
        <time>2011-10-22T14:07:50Z</time>
      </trkpt>
      <trkpt lat="48.72327" lon="1.95735">
        <ele>106.84</ele>
        <time>2011-10-22T14:07:51Z</time>
      </trkpt>
      <trkpt lat="48.72352" lon="1.95738">
        <ele>110.21</ele>
        <time>2011-10-22T14:08:00Z</time>
      </trkpt>
      <trkpt lat="48.72369" lon="1.95747">
        <ele>113.09</ele>
        <time>2011-10-22T14:08:09Z</time>
      </trkpt>
      <trkpt lat="48.72376" lon="1.95763">
        <ele>115.5</ele>
        <time>2011-10-22T14:08:17Z</time>
      </trkpt>
      <trkpt lat="48.72377" lon="1.95765">
        <ele>115.5</ele>
        <time>2011-10-22T14:08:18Z</time>
      </trkpt>
      <trkpt lat="48.72378" lon="1.95767">
        <ele>115.98</ele>
        <time>2011-10-22T14:08:19Z</time>
      </trkpt>
      <trkpt lat="48.72387" lon="1.95787">
        <ele>119.34</ele>
        <time>2011-10-22T14:08:31Z</time>
      </trkpt>
      <trkpt lat="48.72387" lon="1.95793">
        <ele>120.3</ele>
        <time>2011-10-22T14:08:34Z</time>
      </trkpt>
      <trkpt lat="48.72387" lon="1.95795">
        <ele>120.3</ele>
        <time>2011-10-22T14:08:35Z</time>
      </trkpt>
      <trkpt lat="48.72387" lon="1.95797">
        <ele>120.3</ele>
        <time>2011-10-22T14:08:36Z</time>
      </trkpt>
      <trkpt lat="48.72396" lon="1.95825">
        <ele>123.19</ele>
        <time>2011-10-22T14:08:52Z</time>
      </trkpt>
      <trkpt lat="48.72405" lon="1.95843">
        <ele>125.11</ele>
        <time>2011-10-22T14:09:03Z</time>
      </trkpt>
      <trkpt lat="48.72406" lon="1.95843">
        <ele>125.11</ele>
        <time>2011-10-22T14:09:04Z</time>
      </trkpt>
      <trkpt lat="48.72406" lon="1.95845">
        <ele>125.59</ele>
        <time>2011-10-22T14:09:05Z</time>
      </trkpt>
      <trkpt lat="48.72407" lon="1.95846">
        <ele>126.07</ele>
        <time>2011-10-22T14:09:06Z</time>
      </trkpt>
      <trkpt lat="48.72408" lon="1.95847">
        <ele>125.59</ele>
        <time>2011-10-22T14:09:07Z</time>
      </trkpt>
      <trkpt lat="48.72409" lon="1.95849">
        <ele>126.07</ele>
        <time>2011-10-22T14:09:08Z</time>
      </trkpt>
      <trkpt lat="48.72409" lon="1.9585">
        <ele>126.07</ele>
        <time>2011-10-22T14:09:09Z</time>
      </trkpt>
      <trkpt lat="48.7241" lon="1.95852">
        <ele>126.07</ele>
        <time>2011-10-22T14:09:10Z</time>
      </trkpt>
      <trkpt lat="48.72411" lon="1.95853">
        <ele>126.55</ele>
        <time>2011-10-22T14:09:11Z</time>
      </trkpt>
      <trkpt lat="48.72412" lon="1.95855">
        <ele>126.55</ele>
        <time>2011-10-22T14:09:12Z</time>
      </trkpt>
      <trkpt lat="48.72413" lon="1.95856">
        <ele>126.55</ele>
        <time>2011-10-22T14:09:13Z</time>
      </trkpt>
      <trkpt lat="48.72426" lon="1.95884">
        <ele>127.03</ele>
        <time>2011-10-22T14:09:27Z</time>
      </trkpt>
      <trkpt lat="48.72439" lon="1.95916">
        <ele>127.03</ele>
        <time>2011-10-22T14:09:38Z</time>
      </trkpt>
      <trkpt lat="48.72448" lon="1.95958">
        <ele>127.99</ele>
        <time>2011-10-22T14:09:51Z</time>
      </trkpt>
      <trkpt lat="48.72453" lon="1.95998">
        <ele>130.4</ele>
        <time>2011-10-22T14:10:04Z</time>
      </trkpt>
      <trkpt lat="48.72453" lon="1.96039">
        <ele>133.76</ele>
        <time>2011-10-22T14:10:18Z</time>
      </trkpt>
      <trkpt lat="48.72453" lon="1.96078">
        <ele>135.68</ele>
        <time>2011-10-22T14:10:31Z</time>
      </trkpt>
      <trkpt lat="48.72456" lon="1.96116">
        <ele>138.09</ele>
        <time>2011-10-22T14:10:45Z</time>
      </trkpt>
      <trkpt lat="48.72464" lon="1.96155">
        <ele>140.01</ele>
        <time>2011-10-22T14:10:58Z</time>
      </trkpt>
      <trkpt lat="48.72466" lon="1.96184">
        <ele>142.41</ele>
        <time>2011-10-22T14:11:09Z</time>
      </trkpt>
      <trkpt lat="48.72466" lon="1.96185">
        <ele>142.41</ele>
        <time>2011-10-22T14:11:10Z</time>
      </trkpt>
      <trkpt lat="48.72467" lon="1.96187">
        <ele>142.41</ele>
        <time>2011-10-22T14:11:11Z</time>
      </trkpt>
      <trkpt lat="48.72467" lon="1.96189">
        <ele>142.89</ele>
        <time>2011-10-22T14:11:12Z</time>
      </trkpt>
      <trkpt lat="48.72467" lon="1.96191">
        <ele>142.89</ele>
        <time>2011-10-22T14:11:13Z</time>
      </trkpt>
      <trkpt lat="48.72467" lon="1.96192">
        <ele>142.89</ele>
        <time>2011-10-22T14:11:14Z</time>
      </trkpt>
      <trkpt lat="48.72467" lon="1.96194">
        <ele>142.89</ele>
        <time>2011-10-22T14:11:15Z</time>
      </trkpt>
      <trkpt lat="48.72467" lon="1.96196">
        <ele>143.37</ele>
        <time>2011-10-22T14:11:16Z</time>
      </trkpt>
      <trkpt lat="48.72467" lon="1.96198">
        <ele>143.37</ele>
        <time>2011-10-22T14:11:17Z</time>
      </trkpt>
      <trkpt lat="48.72468" lon="1.962">
        <ele>143.85</ele>
        <time>2011-10-22T14:11:18Z</time>
      </trkpt>
      <trkpt lat="48.72469" lon="1.96201">
        <ele>144.34</ele>
        <time>2011-10-22T14:11:19Z</time>
      </trkpt>
      <trkpt lat="48.7247" lon="1.96203">
        <ele>144.34</ele>
        <time>2011-10-22T14:11:20Z</time>
      </trkpt>
      <trkpt lat="48.72471" lon="1.96204">
        <ele>144.82</ele>
        <time>2011-10-22T14:11:21Z</time>
      </trkpt>
      <trkpt lat="48.72476" lon="1.96215">
        <ele>148.18</ele>
        <time>2011-10-22T14:11:33Z</time>
      </trkpt>
      <trkpt lat="48.72479" lon="1.96225">
        <ele>149.14</ele>
        <time>2011-10-22T14:11:40Z</time>
      </trkpt>
      <trkpt lat="48.72482" lon="1.96235">
        <ele>150.1</ele>
        <time>2011-10-22T14:11:45Z</time>
      </trkpt>
      <trkpt lat="48.72487" lon="1.9625">
        <ele>152.51</ele>
        <time>2011-10-22T14:11:53Z</time>
      </trkpt>
      <trkpt lat="48.7249" lon="1.96254">
        <ele>152.99</ele>
        <time>2011-10-22T14:11:55Z</time>
      </trkpt>
      <trkpt lat="48.72492" lon="1.96257">
        <ele>152.99</ele>
        <time>2011-10-22T14:11:56Z</time>
      </trkpt>
      <trkpt lat="48.72495" lon="1.96279">
        <ele>155.39</ele>
        <time>2011-10-22T14:12:09Z</time>
      </trkpt>
      <trkpt lat="48.72495" lon="1.96282">
        <ele>155.87</ele>
        <time>2011-10-22T14:12:11Z</time>
      </trkpt>
      <trkpt lat="48.72495" lon="1.96283">
        <ele>156.83</ele>
        <time>2011-10-22T14:12:12Z</time>
      </trkpt>
      <trkpt lat="48.72495" lon="1.96285">
        <ele>156.35</ele>
        <time>2011-10-22T14:12:13Z</time>
      </trkpt>
      <trkpt lat="48.72501" lon="1.96308">
        <ele>158.27</ele>
        <time>2011-10-22T14:12:26Z</time>
      </trkpt>
      <trkpt lat="48.72516" lon="1.96333">
        <ele>160.68</ele>
        <time>2011-10-22T14:12:42Z</time>
      </trkpt>
      <trkpt lat="48.72517" lon="1.96337">
        <ele>160.2</ele>
        <time>2011-10-22T14:12:44Z</time>
      </trkpt>
      <trkpt lat="48.72519" lon="1.96338">
        <ele>160.68</ele>
        <time>2011-10-22T14:12:45Z</time>
      </trkpt>
      <trkpt lat="48.7252" lon="1.9634">
        <ele>160.68</ele>
        <time>2011-10-22T14:12:46Z</time>
      </trkpt>
      <trkpt lat="48.7253" lon="1.96352">
        <ele>160.68</ele>
        <time>2011-10-22T14:12:54Z</time>
      </trkpt>
      <trkpt lat="48.72531" lon="1.96353">
        <ele>161.16</ele>
        <time>2011-10-22T14:12:55Z</time>
      </trkpt>
      <trkpt lat="48.72533" lon="1.96354">
        <ele>161.16</ele>
        <time>2011-10-22T14:12:56Z</time>
      </trkpt>
      <trkpt lat="48.72535" lon="1.96354">
        <ele>161.16</ele>
        <time>2011-10-22T14:12:57Z</time>
      </trkpt>
      <trkpt lat="48.72537" lon="1.96355">
        <ele>161.16</ele>
        <time>2011-10-22T14:12:58Z</time>
      </trkpt>
      <trkpt lat="48.72538" lon="1.96356">
        <ele>161.16</ele>
        <time>2011-10-22T14:12:59Z</time>
      </trkpt>
      <trkpt lat="48.7254" lon="1.96356">
        <ele>161.64</ele>
        <time>2011-10-22T14:13:00Z</time>
      </trkpt>
      <trkpt lat="48.72542" lon="1.96358">
        <ele>161.64</ele>
        <time>2011-10-22T14:13:01Z</time>
      </trkpt>
      <trkpt lat="48.72545" lon="1.96359">
        <ele>161.64</ele>
        <time>2011-10-22T14:13:02Z</time>
      </trkpt>
      <trkpt lat="48.72547" lon="1.96361">
        <ele>161.64</ele>
        <time>2011-10-22T14:13:03Z</time>
      </trkpt>
      <trkpt lat="48.72586" lon="1.96388">
        <ele>162.12</ele>
        <time>2011-10-22T14:13:17Z</time>
      </trkpt>
      <trkpt lat="48.72647" lon="1.96431">
        <ele>162.12</ele>
        <time>2011-10-22T14:13:34Z</time>
      </trkpt>
      <trkpt lat="48.72716" lon="1.96468">
        <ele>162.6</ele>
        <time>2011-10-22T14:13:51Z</time>
      </trkpt>
      <trkpt lat="48.72799" lon="1.96474">
        <ele>163.08</ele>
        <time>2011-10-22T14:14:08Z</time>
      </trkpt>
      <trkpt lat="48.72895" lon="1.96467">
        <ele>163.56</ele>
        <time>2011-10-22T14:14:26Z</time>
      </trkpt>
      <trkpt lat="48.72979" lon="1.96476">
        <ele>164.52</ele>
        <time>2011-10-22T14:14:42Z</time>
      </trkpt>
      <trkpt lat="48.73067" lon="1.9649">
        <ele>164.52</ele>
        <time>2011-10-22T14:14:59Z</time>
      </trkpt>
      <trkpt lat="48.73163" lon="1.96499">
        <ele>164.04</ele>
        <time>2011-10-22T14:15:16Z</time>
      </trkpt>
      <trkpt lat="48.73255" lon="1.96494">
        <ele>164.04</ele>
        <time>2011-10-22T14:15:33Z</time>
      </trkpt>
      <trkpt lat="48.73351" lon="1.96473">
        <ele>163.56</ele>
        <time>2011-10-22T14:15:51Z</time>
      </trkpt>
      <trkpt lat="48.73446" lon="1.9646">
        <ele>164.52</ele>
        <time>2011-10-22T14:16:09Z</time>
      </trkpt>
      <trkpt lat="48.73525" lon="1.96457">
        <ele>165.48</ele>
        <time>2011-10-22T14:16:24Z</time>
      </trkpt>
      <trkpt lat="48.73618" lon="1.9645">
        <ele>166.45</ele>
        <time>2011-10-22T14:16:42Z</time>
      </trkpt>
      <trkpt lat="48.73632" lon="1.96452">
        <ele>166.93</ele>
        <time>2011-10-22T14:16:46Z</time>
      </trkpt>
      <trkpt lat="48.73634" lon="1.9645">
        <ele>166.93</ele>
        <time>2011-10-22T14:16:47Z</time>
      </trkpt>
      <trkpt lat="48.73637" lon="1.96448">
        <ele>166.93</ele>
        <time>2011-10-22T14:16:48Z</time>
      </trkpt>
      <trkpt lat="48.7364" lon="1.96447">
        <ele>166.45</ele>
        <time>2011-10-22T14:16:49Z</time>
      </trkpt>
      <trkpt lat="48.73643" lon="1.96447">
        <ele>166.93</ele>
        <time>2011-10-22T14:16:50Z</time>
      </trkpt>
      <trkpt lat="48.73647" lon="1.96447">
        <ele>167.89</ele>
        <time>2011-10-22T14:16:51Z</time>
      </trkpt>
      <trkpt lat="48.73652" lon="1.96448">
        <ele>166.93</ele>
        <time>2011-10-22T14:16:52Z</time>
      </trkpt>
      <trkpt lat="48.73656" lon="1.9645">
        <ele>166.93</ele>
        <time>2011-10-22T14:16:53Z</time>
      </trkpt>
      <trkpt lat="48.73723" lon="1.96466">
        <ele>167.41</ele>
        <time>2011-10-22T14:17:09Z</time>
      </trkpt>
      <trkpt lat="48.73732" lon="1.96471">
        <ele>166.93</ele>
        <time>2011-10-22T14:17:11Z</time>
      </trkpt>
      <trkpt lat="48.73774" lon="1.96501">
        <ele>167.41</ele>
        <time>2011-10-22T14:17:21Z</time>
      </trkpt>
      <trkpt lat="48.73786" lon="1.96513">
        <ele>166.93</ele>
        <time>2011-10-22T14:17:24Z</time>
      </trkpt>
      <trkpt lat="48.73818" lon="1.96552">
        <ele>166.93</ele>
        <time>2011-10-22T14:17:32Z</time>
      </trkpt>
      <trkpt lat="48.73835" lon="1.96571">
        <ele>166.93</ele>
        <time>2011-10-22T14:17:36Z</time>
      </trkpt>
      <trkpt lat="48.73839" lon="1.96575">
        <ele>166.45</ele>
        <time>2011-10-22T14:17:37Z</time>
      </trkpt>
      <trkpt lat="48.73843" lon="1.96581">
        <ele>166.45</ele>
        <time>2011-10-22T14:17:38Z</time>
      </trkpt>
      <trkpt lat="48.73903" lon="1.96673">
        <ele>165.48</ele>
        <time>2011-10-22T14:17:53Z</time>
      </trkpt>
      <trkpt lat="48.73969" lon="1.96779">
        <ele>164.52</ele>
        <time>2011-10-22T14:18:09Z</time>
      </trkpt>
      <trkpt lat="48.7402" lon="1.96864">
        <ele>164.52</ele>
        <time>2011-10-22T14:18:22Z</time>
      </trkpt>
      <trkpt lat="48.74028" lon="1.96881">
        <ele>165</ele>
        <time>2011-10-22T14:18:29Z</time>
      </trkpt>
      <trkpt lat="48.74029" lon="1.96881">
        <ele>165</ele>
        <time>2011-10-22T14:18:41Z</time>
      </trkpt>
      <trkpt lat="48.74029" lon="1.96883">
        <ele>165</ele>
        <time>2011-10-22T14:18:54Z</time>
      </trkpt>
      <trkpt lat="48.74029" lon="1.96885">
        <ele>165</ele>
        <time>2011-10-22T14:18:55Z</time>
      </trkpt>
      <trkpt lat="48.74029" lon="1.96887">
        <ele>165</ele>
        <time>2011-10-22T14:18:56Z</time>
      </trkpt>
      <trkpt lat="48.74029" lon="1.9689">
        <ele>165</ele>
        <time>2011-10-22T14:18:57Z</time>
      </trkpt>
      <trkpt lat="48.74029" lon="1.96892">
        <ele>164.52</ele>
        <time>2011-10-22T14:18:58Z</time>
      </trkpt>
      <trkpt lat="48.74028" lon="1.96895">
        <ele>164.52</ele>
        <time>2011-10-22T14:18:59Z</time>
      </trkpt>
      <trkpt lat="48.74027" lon="1.96898">
        <ele>164.52</ele>
        <time>2011-10-22T14:19:00Z</time>
      </trkpt>
      <trkpt lat="48.74027" lon="1.96903">
        <ele>164.52</ele>
        <time>2011-10-22T14:19:01Z</time>
      </trkpt>
      <trkpt lat="48.74033" lon="1.96952">
        <ele>164.04</ele>
        <time>2011-10-22T14:19:09Z</time>
      </trkpt>
      <trkpt lat="48.74046" lon="1.97036">
        <ele>163.56</ele>
        <time>2011-10-22T14:19:20Z</time>
      </trkpt>
      <trkpt lat="48.74057" lon="1.97156">
        <ele>163.08</ele>
        <time>2011-10-22T14:19:35Z</time>
      </trkpt>
      <trkpt lat="48.74056" lon="1.9718">
        <ele>163.08</ele>
        <time>2011-10-22T14:19:38Z</time>
      </trkpt>
      <trkpt lat="48.74052" lon="1.97217">
        <ele>163.08</ele>
        <time>2011-10-22T14:19:43Z</time>
      </trkpt>
      <trkpt lat="48.74054" lon="1.97223">
        <ele>163.08</ele>
        <time>2011-10-22T14:19:44Z</time>
      </trkpt>
      <trkpt lat="48.74057" lon="1.97227">
        <ele>163.08</ele>
        <time>2011-10-22T14:19:45Z</time>
      </trkpt>
      <trkpt lat="48.74062" lon="1.97229">
        <ele>163.08</ele>
        <time>2011-10-22T14:19:46Z</time>
      </trkpt>
      <trkpt lat="48.74066" lon="1.9723">
        <ele>163.08</ele>
        <time>2011-10-22T14:19:47Z</time>
      </trkpt>
      <trkpt lat="48.7407" lon="1.97229">
        <ele>163.56</ele>
        <time>2011-10-22T14:19:48Z</time>
      </trkpt>
      <trkpt lat="48.74075" lon="1.97228">
        <ele>163.08</ele>
        <time>2011-10-22T14:19:49Z</time>
      </trkpt>
      <trkpt lat="48.74079" lon="1.97228">
        <ele>163.56</ele>
        <time>2011-10-22T14:19:50Z</time>
      </trkpt>
      <trkpt lat="48.74146" lon="1.97226">
        <ele>162.12</ele>
        <time>2011-10-22T14:20:02Z</time>
      </trkpt>
      <trkpt lat="48.7425" lon="1.97221">
        <ele>161.64</ele>
        <time>2011-10-22T14:20:19Z</time>
      </trkpt>
      <trkpt lat="48.74356" lon="1.97236">
        <ele>160.2</ele>
        <time>2011-10-22T14:20:36Z</time>
      </trkpt>
      <trkpt lat="48.74432" lon="1.97245">
        <ele>160.2</ele>
        <time>2011-10-22T14:20:50Z</time>
      </trkpt>
      <trkpt lat="48.74498" lon="1.97226">
        <ele>161.64</ele>
        <time>2011-10-22T14:21:03Z</time>
      </trkpt>
      <trkpt lat="48.74523" lon="1.9721">
        <ele>161.64</ele>
        <time>2011-10-22T14:21:09Z</time>
      </trkpt>
      <trkpt lat="48.74527" lon="1.97208">
        <ele>161.64</ele>
        <time>2011-10-22T14:21:10Z</time>
      </trkpt>
      <trkpt lat="48.74531" lon="1.97205">
        <ele>162.12</ele>
        <time>2011-10-22T14:21:11Z</time>
      </trkpt>
      <trkpt lat="48.74535" lon="1.97202">
        <ele>162.12</ele>
        <time>2011-10-22T14:21:12Z</time>
      </trkpt>
      <trkpt lat="48.74539" lon="1.97199">
        <ele>162.12</ele>
        <time>2011-10-22T14:21:13Z</time>
      </trkpt>
      <trkpt lat="48.74543" lon="1.97197">
        <ele>162.12</ele>
        <time>2011-10-22T14:21:14Z</time>
      </trkpt>
      <trkpt lat="48.74547" lon="1.97194">
        <ele>162.12</ele>
        <time>2011-10-22T14:21:15Z</time>
      </trkpt>
      <trkpt lat="48.74551" lon="1.97192">
        <ele>162.12</ele>
        <time>2011-10-22T14:21:16Z</time>
      </trkpt>
      <trkpt lat="48.74582" lon="1.97174">
        <ele>161.64</ele>
        <time>2011-10-22T14:21:25Z</time>
      </trkpt>
      <trkpt lat="48.74596" lon="1.97179">
        <ele>161.64</ele>
        <time>2011-10-22T14:21:28Z</time>
      </trkpt>
      <trkpt lat="48.746" lon="1.97183">
        <ele>161.16</ele>
        <time>2011-10-22T14:21:29Z</time>
      </trkpt>
      <trkpt lat="48.7461" lon="1.97198">
        <ele>161.16</ele>
        <time>2011-10-22T14:21:32Z</time>
      </trkpt>
      <trkpt lat="48.74613" lon="1.97204">
        <ele>161.16</ele>
        <time>2011-10-22T14:21:33Z</time>
      </trkpt>
      <trkpt lat="48.74617" lon="1.97217">
        <ele>160.68</ele>
        <time>2011-10-22T14:21:35Z</time>
      </trkpt>
      <trkpt lat="48.74617" lon="1.97224">
        <ele>160.68</ele>
        <time>2011-10-22T14:21:36Z</time>
      </trkpt>
      <trkpt lat="48.74618" lon="1.97255">
        <ele>160.2</ele>
        <time>2011-10-22T14:21:40Z</time>
      </trkpt>
      <trkpt lat="48.74618" lon="1.97263">
        <ele>160.2</ele>
        <time>2011-10-22T14:21:41Z</time>
      </trkpt>
      <trkpt lat="48.74618" lon="1.97271">
        <ele>160.68</ele>
        <time>2011-10-22T14:21:42Z</time>
      </trkpt>
      <trkpt lat="48.74618" lon="1.97279">
        <ele>160.2</ele>
        <time>2011-10-22T14:21:43Z</time>
      </trkpt>
      <trkpt lat="48.74618" lon="1.97286">
        <ele>159.72</ele>
        <time>2011-10-22T14:21:44Z</time>
      </trkpt>
      <trkpt lat="48.74619" lon="1.97324">
        <ele>159.72</ele>
        <time>2011-10-22T14:21:49Z</time>
      </trkpt>
      <trkpt lat="48.74618" lon="1.97331">
        <ele>159.72</ele>
        <time>2011-10-22T14:21:50Z</time>
      </trkpt>
      <trkpt lat="48.74612" lon="1.97361">
        <ele>160.68</ele>
        <time>2011-10-22T14:21:54Z</time>
      </trkpt>
      <trkpt lat="48.74606" lon="1.97398">
        <ele>159.72</ele>
        <time>2011-10-22T14:21:59Z</time>
      </trkpt>
      <trkpt lat="48.74603" lon="1.97414">
        <ele>159.72</ele>
        <time>2011-10-22T14:22:01Z</time>
      </trkpt>
      <trkpt lat="48.74589" lon="1.97498">
        <ele>158.75</ele>
        <time>2011-10-22T14:22:12Z</time>
      </trkpt>
      <trkpt lat="48.74589" lon="1.97505">
        <ele>159.24</ele>
        <time>2011-10-22T14:22:13Z</time>
      </trkpt>
      <trkpt lat="48.7459" lon="1.97513">
        <ele>159.24</ele>
        <time>2011-10-22T14:22:14Z</time>
      </trkpt>
      <trkpt lat="48.74592" lon="1.9752">
        <ele>159.72</ele>
        <time>2011-10-22T14:22:15Z</time>
      </trkpt>
      <trkpt lat="48.74595" lon="1.97527">
        <ele>159.72</ele>
        <time>2011-10-22T14:22:16Z</time>
      </trkpt>
      <trkpt lat="48.74598" lon="1.97533">
        <ele>159.72</ele>
        <time>2011-10-22T14:22:17Z</time>
      </trkpt>
      <trkpt lat="48.74601" lon="1.97539">
        <ele>159.72</ele>
        <time>2011-10-22T14:22:18Z</time>
      </trkpt>
      <trkpt lat="48.74617" lon="1.97568">
        <ele>160.68</ele>
        <time>2011-10-22T14:22:23Z</time>
      </trkpt>
      <trkpt lat="48.74619" lon="1.97574">
        <ele>160.2</ele>
        <time>2011-10-22T14:22:24Z</time>
      </trkpt>
      <trkpt lat="48.74632" lon="1.97616">
        <ele>160.68</ele>
        <time>2011-10-22T14:22:30Z</time>
      </trkpt>
      <trkpt lat="48.74639" lon="1.97646">
        <ele>160.68</ele>
        <time>2011-10-22T14:22:34Z</time>
      </trkpt>
      <trkpt lat="48.74641" lon="1.97653">
        <ele>161.16</ele>
        <time>2011-10-22T14:22:35Z</time>
      </trkpt>
      <trkpt lat="48.7465" lon="1.97681">
        <ele>160.68</ele>
        <time>2011-10-22T14:22:39Z</time>
      </trkpt>
      <trkpt lat="48.74651" lon="1.97688">
        <ele>160.68</ele>
        <time>2011-10-22T14:22:40Z</time>
      </trkpt>
      <trkpt lat="48.74654" lon="1.97694">
        <ele>160.68</ele>
        <time>2011-10-22T14:22:41Z</time>
      </trkpt>
      <trkpt lat="48.74657" lon="1.977">
        <ele>160.2</ele>
        <time>2011-10-22T14:22:42Z</time>
      </trkpt>
      <trkpt lat="48.7466" lon="1.97707">
        <ele>160.68</ele>
        <time>2011-10-22T14:22:43Z</time>
      </trkpt>
      <trkpt lat="48.74664" lon="1.97712">
        <ele>160.68</ele>
        <time>2011-10-22T14:22:44Z</time>
      </trkpt>
      <trkpt lat="48.74667" lon="1.97716">
        <ele>161.16</ele>
        <time>2011-10-22T14:22:45Z</time>
      </trkpt>
      <trkpt lat="48.74688" lon="1.97736">
        <ele>160.68</ele>
        <time>2011-10-22T14:22:50Z</time>
      </trkpt>
      <trkpt lat="48.74755" lon="1.97803">
        <ele>161.64</ele>
        <time>2011-10-22T14:23:05Z</time>
      </trkpt>
      <trkpt lat="48.74796" lon="1.97844">
        <ele>161.64</ele>
        <time>2011-10-22T14:23:14Z</time>
      </trkpt>
      <trkpt lat="48.748" lon="1.97849">
        <ele>161.64</ele>
        <time>2011-10-22T14:23:15Z</time>
      </trkpt>
      <trkpt lat="48.74839" lon="1.97894">
        <ele>160.68</ele>
        <time>2011-10-22T14:23:24Z</time>
      </trkpt>
      <trkpt lat="48.74867" lon="1.97933">
        <ele>160.68</ele>
        <time>2011-10-22T14:23:31Z</time>
      </trkpt>
      <trkpt lat="48.74915" lon="1.98029">
        <ele>160.68</ele>
        <time>2011-10-22T14:23:46Z</time>
      </trkpt>
      <trkpt lat="48.74918" lon="1.98035">
        <ele>160.2</ele>
        <time>2011-10-22T14:23:47Z</time>
      </trkpt>
      <trkpt lat="48.74938" lon="1.98073">
        <ele>161.16</ele>
        <time>2011-10-22T14:23:54Z</time>
      </trkpt>
      <trkpt lat="48.74981" lon="1.98164">
        <ele>161.16</ele>
        <time>2011-10-22T14:24:10Z</time>
      </trkpt>
      <trkpt lat="48.75011" lon="1.98221">
        <ele>161.16</ele>
        <time>2011-10-22T14:24:21Z</time>
      </trkpt>
      <trkpt lat="48.75014" lon="1.98227">
        <ele>161.64</ele>
        <time>2011-10-22T14:24:22Z</time>
      </trkpt>
      <trkpt lat="48.75017" lon="1.98232">
        <ele>161.16</ele>
        <time>2011-10-22T14:24:23Z</time>
      </trkpt>
      <trkpt lat="48.7502" lon="1.98238">
        <ele>160.68</ele>
        <time>2011-10-22T14:24:24Z</time>
      </trkpt>
      <trkpt lat="48.75023" lon="1.98244">
        <ele>160.68</ele>
        <time>2011-10-22T14:24:25Z</time>
      </trkpt>
      <trkpt lat="48.75053" lon="1.98294">
        <ele>161.16</ele>
        <time>2011-10-22T14:24:34Z</time>
      </trkpt>
      <trkpt lat="48.751" lon="1.98406">
        <ele>158.27</ele>
        <time>2011-10-22T14:24:50Z</time>
      </trkpt>
      <trkpt lat="48.75132" lon="1.98495">
        <ele>153.47</ele>
        <time>2011-10-22T14:25:00Z</time>
      </trkpt>
      <trkpt lat="48.75134" lon="1.98505">
        <ele>152.99</ele>
        <time>2011-10-22T14:25:01Z</time>
      </trkpt>
      <trkpt lat="48.75136" lon="1.98515">
        <ele>152.99</ele>
        <time>2011-10-22T14:25:02Z</time>
      </trkpt>
      <trkpt lat="48.75138" lon="1.98523">
        <ele>153.47</ele>
        <time>2011-10-22T14:25:03Z</time>
      </trkpt>
      <trkpt lat="48.75141" lon="1.98529">
        <ele>153.47</ele>
        <time>2011-10-22T14:25:04Z</time>
      </trkpt>
      <trkpt lat="48.75144" lon="1.98533">
        <ele>153.47</ele>
        <time>2011-10-22T14:25:05Z</time>
      </trkpt>
      <trkpt lat="48.75147" lon="1.98537">
        <ele>154.43</ele>
        <time>2011-10-22T14:25:06Z</time>
      </trkpt>
      <trkpt lat="48.75149" lon="1.98542">
        <ele>154.91</ele>
        <time>2011-10-22T14:25:07Z</time>
      </trkpt>
      <trkpt lat="48.7515" lon="1.98545">
        <ele>155.39</ele>
        <time>2011-10-22T14:25:08Z</time>
      </trkpt>
      <trkpt lat="48.7515" lon="1.98548">
        <ele>155.39</ele>
        <time>2011-10-22T14:25:09Z</time>
      </trkpt>
      <trkpt lat="48.75149" lon="1.98551">
        <ele>155.39</ele>
        <time>2011-10-22T14:25:10Z</time>
      </trkpt>
      <trkpt lat="48.75148" lon="1.98554">
        <ele>155.39</ele>
        <time>2011-10-22T14:25:11Z</time>
      </trkpt>
      <trkpt lat="48.75147" lon="1.98557">
        <ele>155.87</ele>
        <time>2011-10-22T14:25:12Z</time>
      </trkpt>
      <trkpt lat="48.75151" lon="1.98538">
        <ele>160.3710938</ele>
      </trkpt>
      <trkpt lat="48.75242" lon="1.98575">
        <ele>165.6796875</ele>
      </trkpt>
      <trkpt lat="48.75391" lon="1.98634">
        <ele>169.0039063</ele>
      </trkpt>
      <trkpt lat="48.75507" lon="1.98678">
        <ele>172.7539063</ele>
      </trkpt>
      <trkpt lat="48.75591" lon="1.98708">
        <ele>172.8125</ele>
      </trkpt>
      <trkpt lat="48.75634" lon="1.98727">
        <ele>171.5898438</ele>
      </trkpt>
      <trkpt lat="48.75675" lon="1.98754">
        <ele>170.4804688</ele>
      </trkpt>
      <trkpt lat="48.75685" lon="1.9899">
        <ele>168.3828125</ele>
      </trkpt>
      <trkpt lat="48.7569" lon="1.99179">
        <ele>168.2226563</ele>
      </trkpt>
      <trkpt lat="48.75692" lon="1.99258">
        <ele>168.7070313</ele>
      </trkpt>
      <trkpt lat="48.75693" lon="1.99308">
        <ele>169</ele>
      </trkpt>
      <trkpt lat="48.75866" lon="1.99445">
        <ele>166.8789063</ele>
      </trkpt>
      <trkpt lat="48.75946" lon="1.99506">
        <ele>165.9960938</ele>
      </trkpt>
      <trkpt lat="48.76024" lon="1.99571">
        <ele>165.0507813</ele>
      </trkpt>
      <trkpt lat="48.76082" lon="1.99718">
        <ele>164</ele>
      </trkpt>
      <trkpt lat="48.7617" lon="1.9993">
        <ele>164.0585938</ele>
      </trkpt>
      <trkpt lat="48.76234" lon="2.00092">
        <ele>165.5625</ele>
      </trkpt>
      <trkpt lat="48.76234" lon="2.00094">
        <ele>165.5390625</ele>
      </trkpt>
      <trkpt lat="48.76267" lon="2.0018">
        <ele>166</ele>
      </trkpt>
      <trkpt lat="48.7634" lon="2.00349">
        <ele>165.8203125</ele>
      </trkpt>
      <trkpt lat="48.76399" lon="2.00489">
        <ele>164</ele>
      </trkpt>
      <trkpt lat="48.76471" lon="2.00653">
        <ele>165.84375</ele>
      </trkpt>
      <trkpt lat="48.76487" lon="2.00684">
        <ele>166.4960938</ele>
      </trkpt>
      <trkpt lat="48.76464" lon="2.00719">
        <ele>165.8476563</ele>
      </trkpt>
      <trkpt lat="48.7646" lon="2.00763">
        <ele>166.4648438</ele>
      </trkpt>
      <trkpt lat="48.76451" lon="2.00794">
        <ele>166.203125</ele>
      </trkpt>
      <trkpt lat="48.76453" lon="2.00827">
        <ele>166.4335938</ele>
      </trkpt>
      <trkpt lat="48.76431" lon="2.00868">
        <ele>165.984375</ele>
      </trkpt>
      <trkpt lat="48.76431" lon="2.00866">
        <ele>165.984375</ele>
      </trkpt>
      <trkpt lat="48.76408" lon="2.00941">
        <ele>164.921875</ele>
      </trkpt>
      <trkpt lat="48.76392" lon="2.01004">
        <ele>165.0664063</ele>
      </trkpt>
      <trkpt lat="48.7639" lon="2.01002">
        <ele>165.0039063</ele>
      </trkpt>
      <trkpt lat="48.76363" lon="2.01197">
        <ele>165.53125</ele>
      </trkpt>
      <trkpt lat="48.76351" lon="2.01232">
        <ele>165.90625</ele>
      </trkpt>
      <trkpt lat="48.76334" lon="2.01305">
        <ele>165.9960938</ele>
      </trkpt>
      <trkpt lat="48.76333" lon="2.01384">
        <ele>167.9335938</ele>
      </trkpt>
      <trkpt lat="48.76336" lon="2.01419">
        <ele>168</ele>
      </trkpt>
      <trkpt lat="48.76336" lon="2.01421">
        <ele>168</ele>
      </trkpt>
      <trkpt lat="48.76342" lon="2.01432">
        <ele>168</ele>
      </trkpt>
      <trkpt lat="48.76338" lon="2.01425">
        <ele>168</ele>
      </trkpt>
      <trkpt lat="48.76354" lon="2.01485">
        <ele>169</ele>
      </trkpt>
      <trkpt lat="48.76349" lon="2.01572">
        <ele>169.5273438</ele>
      </trkpt>
      <trkpt lat="48.76342" lon="2.01654">
        <ele>170</ele>
      </trkpt>
      <trkpt lat="48.76316" lon="2.01645">
        <ele>169.7617188</ele>
      </trkpt>
      <trkpt lat="48.76293" lon="2.01629">
        <ele>169.0820313</ele>
      </trkpt>
      <trkpt lat="48.76216" lon="2.01739">
        <ele>167.734375</ele>
      </trkpt>
      <trkpt lat="48.76144" lon="2.01827">
        <ele>165.1367188</ele>
      </trkpt>
      <trkpt lat="48.76077" lon="2.01925">
        <ele>162.6757813</ele>
      </trkpt>
      <trkpt lat="48.76058" lon="2.0195">
        <ele>162.03125</ele>
      </trkpt>
      <trkpt lat="48.76052" lon="2.01998">
        <ele>161.8359375</ele>
      </trkpt>
      <trkpt lat="48.76042" lon="2.02033">
        <ele>161.4492188</ele>
      </trkpt>
      <trkpt lat="48.76022" lon="2.02038">
        <ele>152.99</ele>
        <time>2011-10-22T14:34:38Z</time>
      </trkpt>
      <trkpt lat="48.76028" lon="2.02096">
        <ele>153.95</ele>
        <time>2011-10-22T14:34:49Z</time>
      </trkpt>
      <trkpt lat="48.7602" lon="2.02122">
        <ele>153.47</ele>
        <time>2011-10-22T14:34:54Z</time>
      </trkpt>
      <trkpt lat="48.76019" lon="2.02127">
        <ele>153.47</ele>
        <time>2011-10-22T14:34:55Z</time>
      </trkpt>
      <trkpt lat="48.76018" lon="2.02133">
        <ele>153.95</ele>
        <time>2011-10-22T14:34:56Z</time>
      </trkpt>
      <trkpt lat="48.76017" lon="2.02138">
        <ele>153.47</ele>
        <time>2011-10-22T14:34:57Z</time>
      </trkpt>
      <trkpt lat="48.76017" lon="2.02144">
        <ele>153.47</ele>
        <time>2011-10-22T14:34:58Z</time>
      </trkpt>
      <trkpt lat="48.76016" lon="2.02151">
        <ele>153.47</ele>
        <time>2011-10-22T14:34:59Z</time>
      </trkpt>
      <trkpt lat="48.76015" lon="2.0217">
        <ele>153.47</ele>
        <time>2011-10-22T14:35:02Z</time>
      </trkpt>
      <trkpt lat="48.76006" lon="2.02226">
        <ele>153.47</ele>
        <time>2011-10-22T14:35:10Z</time>
      </trkpt>
      <trkpt lat="48.76005" lon="2.02233">
        <ele>153.47</ele>
        <time>2011-10-22T14:35:11Z</time>
      </trkpt>
      <trkpt lat="48.76004" lon="2.02241">
        <ele>152.99</ele>
        <time>2011-10-22T14:35:12Z</time>
      </trkpt>
      <trkpt lat="48.75998" lon="2.0227">
        <ele>153.47</ele>
        <time>2011-10-22T14:35:16Z</time>
      </trkpt>
      <trkpt lat="48.75997" lon="2.02278">
        <ele>153.47</ele>
        <time>2011-10-22T14:35:17Z</time>
      </trkpt>
      <trkpt lat="48.75991" lon="2.02365">
        <ele>152.99</ele>
        <time>2011-10-22T14:35:29Z</time>
      </trkpt>
      <trkpt lat="48.75989" lon="2.02388">
        <ele>152.99</ele>
        <time>2011-10-22T14:35:32Z</time>
      </trkpt>
      <trkpt lat="48.75988" lon="2.02409">
        <ele>152.51</ele>
        <time>2011-10-22T14:35:35Z</time>
      </trkpt>
      <trkpt lat="48.75987" lon="2.02416">
        <ele>152.51</ele>
        <time>2011-10-22T14:35:36Z</time>
      </trkpt>
      <trkpt lat="48.75988" lon="2.02437">
        <ele>152.99</ele>
        <time>2011-10-22T14:35:39Z</time>
      </trkpt>
      <trkpt lat="48.75988" lon="2.02444">
        <ele>152.51</ele>
        <time>2011-10-22T14:35:40Z</time>
      </trkpt>
      <trkpt lat="48.75988" lon="2.02474">
        <ele>152.51</ele>
        <time>2011-10-22T14:35:44Z</time>
      </trkpt>
      <trkpt lat="48.75987" lon="2.02483">
        <ele>152.03</ele>
        <time>2011-10-22T14:35:45Z</time>
      </trkpt>
      <trkpt lat="48.75987" lon="2.02491">
        <ele>152.51</ele>
        <time>2011-10-22T14:35:46Z</time>
      </trkpt>
      <trkpt lat="48.75987" lon="2.02498">
        <ele>152.51</ele>
        <time>2011-10-22T14:35:47Z</time>
      </trkpt>
      <trkpt lat="48.75986" lon="2.02506">
        <ele>152.03</ele>
        <time>2011-10-22T14:35:48Z</time>
      </trkpt>
      <trkpt lat="48.75985" lon="2.02515">
        <ele>152.03</ele>
        <time>2011-10-22T14:35:49Z</time>
      </trkpt>
      <trkpt lat="48.75982" lon="2.02557">
        <ele>152.51</ele>
        <time>2011-10-22T14:35:54Z</time>
      </trkpt>
      <trkpt lat="48.75981" lon="2.02566">
        <ele>152.03</ele>
        <time>2011-10-22T14:35:55Z</time>
      </trkpt>
      <trkpt lat="48.75979" lon="2.02582">
        <ele>152.03</ele>
        <time>2011-10-22T14:35:57Z</time>
      </trkpt>
      <trkpt lat="48.75978" lon="2.02588">
        <ele>152.51</ele>
        <time>2011-10-22T14:35:58Z</time>
      </trkpt>
      <trkpt lat="48.75976" lon="2.02595">
        <ele>152.51</ele>
        <time>2011-10-22T14:35:59Z</time>
      </trkpt>
      <trkpt lat="48.75975" lon="2.02602">
        <ele>152.51</ele>
        <time>2011-10-22T14:36:00Z</time>
      </trkpt>
      <trkpt lat="48.75972" lon="2.02609">
        <ele>152.99</ele>
        <time>2011-10-22T14:36:01Z</time>
      </trkpt>
      <trkpt lat="48.7597" lon="2.02615">
        <ele>152.99</ele>
        <time>2011-10-22T14:36:02Z</time>
      </trkpt>
      <trkpt lat="48.75968" lon="2.02621">
        <ele>152.51</ele>
        <time>2011-10-22T14:36:03Z</time>
      </trkpt>
      <trkpt lat="48.75967" lon="2.02628">
        <ele>152.99</ele>
        <time>2011-10-22T14:36:04Z</time>
      </trkpt>
      <trkpt lat="48.75954" lon="2.02671">
        <ele>152.51</ele>
        <time>2011-10-22T14:36:10Z</time>
      </trkpt>
      <trkpt lat="48.75952" lon="2.02678">
        <ele>152.51</ele>
        <time>2011-10-22T14:36:11Z</time>
      </trkpt>
      <trkpt lat="48.75949" lon="2.02695">
        <ele>152.51</ele>
        <time>2011-10-22T14:36:14Z</time>
      </trkpt>
      <trkpt lat="48.7595" lon="2.02699">
        <ele>152.99</ele>
        <time>2011-10-22T14:36:15Z</time>
      </trkpt>
      <trkpt lat="48.75953" lon="2.02701">
        <ele>152.51</ele>
        <time>2011-10-22T14:36:16Z</time>
      </trkpt>
      <trkpt lat="48.75956" lon="2.02702">
        <ele>152.51</ele>
        <time>2011-10-22T14:36:17Z</time>
      </trkpt>
      <trkpt lat="48.75959" lon="2.02703">
        <ele>152.51</ele>
        <time>2011-10-22T14:36:18Z</time>
      </trkpt>
      <trkpt lat="48.75965" lon="2.02705">
        <ele>152.51</ele>
        <time>2011-10-22T14:36:20Z</time>
      </trkpt>
      <trkpt lat="48.75968" lon="2.02706">
        <ele>152.51</ele>
        <time>2011-10-22T14:36:21Z</time>
      </trkpt>
      <trkpt lat="48.76012" lon="2.02712">
        <ele>152.99</ele>
        <time>2011-10-22T14:36:32Z</time>
      </trkpt>
      <trkpt lat="48.76086" lon="2.02724">
        <ele>153.95</ele>
        <time>2011-10-22T14:36:47Z</time>
      </trkpt>
      <trkpt lat="48.76133" lon="2.02727">
        <ele>154.43</ele>
        <time>2011-10-22T14:36:56Z</time>
      </trkpt>
      <trkpt lat="48.76207" lon="2.02731">
        <ele>155.39</ele>
        <time>2011-10-22T14:37:11Z</time>
      </trkpt>
      <trkpt lat="48.76258" lon="2.02742">
        <ele>155.39</ele>
        <time>2011-10-22T14:37:21Z</time>
      </trkpt>
      <trkpt lat="48.76284" lon="2.0275">
        <ele>155.87</ele>
        <time>2011-10-22T14:37:27Z</time>
      </trkpt>
      <trkpt lat="48.76286" lon="2.02756">
        <ele>155.39</ele>
        <time>2011-10-22T14:37:28Z</time>
      </trkpt>
      <trkpt lat="48.76286" lon="2.02762">
        <ele>155.39</ele>
        <time>2011-10-22T14:37:29Z</time>
      </trkpt>
      <trkpt lat="48.76285" lon="2.02767">
        <ele>155.39</ele>
        <time>2011-10-22T14:37:30Z</time>
      </trkpt>
      <trkpt lat="48.76283" lon="2.02773">
        <ele>154.91</ele>
        <time>2011-10-22T14:37:31Z</time>
      </trkpt>
      <trkpt lat="48.76281" lon="2.02779">
        <ele>155.39</ele>
        <time>2011-10-22T14:37:32Z</time>
      </trkpt>
      <trkpt lat="48.76279" lon="2.02785">
        <ele>155.39</ele>
        <time>2011-10-22T14:37:33Z</time>
      </trkpt>
      <trkpt lat="48.76269" lon="2.0281">
        <ele>154.91</ele>
        <time>2011-10-22T14:37:37Z</time>
      </trkpt>
      <trkpt lat="48.76267" lon="2.02817">
        <ele>154.91</ele>
        <time>2011-10-22T14:37:38Z</time>
      </trkpt>
      <trkpt lat="48.76261" lon="2.0286">
        <ele>155.39</ele>
        <time>2011-10-22T14:37:46Z</time>
      </trkpt>
      <trkpt lat="48.76264" lon="2.02863">
        <ele>154.91</ele>
        <time>2011-10-22T14:37:47Z</time>
      </trkpt>
      <trkpt lat="48.76267" lon="2.02865">
        <ele>155.39</ele>
        <time>2011-10-22T14:37:48Z</time>
      </trkpt>
      <trkpt lat="48.7627" lon="2.02867">
        <ele>155.39</ele>
        <time>2011-10-22T14:37:49Z</time>
      </trkpt>
      <trkpt lat="48.76275" lon="2.02868">
        <ele>155.39</ele>
        <time>2011-10-22T14:37:50Z</time>
      </trkpt>
      <trkpt lat="48.76362" lon="2.0288">
        <ele>155.39</ele>
        <time>2011-10-22T14:38:05Z</time>
      </trkpt>
      <trkpt lat="48.76381" lon="2.02883">
        <ele>154.91</ele>
        <time>2011-10-22T14:38:08Z</time>
      </trkpt>
      <trkpt lat="48.76386" lon="2.02886">
        <ele>154.43</ele>
        <time>2011-10-22T14:38:09Z</time>
      </trkpt>
      <trkpt lat="48.76392" lon="2.02891">
        <ele>154.43</ele>
        <time>2011-10-22T14:38:10Z</time>
      </trkpt>
      <trkpt lat="48.76401" lon="2.02902">
        <ele>154.91</ele>
        <time>2011-10-22T14:38:12Z</time>
      </trkpt>
      <trkpt lat="48.76407" lon="2.02906">
        <ele>154.91</ele>
        <time>2011-10-22T14:38:13Z</time>
      </trkpt>
      <trkpt lat="48.76413" lon="2.02907">
        <ele>154.91</ele>
        <time>2011-10-22T14:38:14Z</time>
      </trkpt>
      <trkpt lat="48.76419" lon="2.02905">
        <ele>154.91</ele>
        <time>2011-10-22T14:38:15Z</time>
      </trkpt>
      <trkpt lat="48.76424" lon="2.02902">
        <ele>154.91</ele>
        <time>2011-10-22T14:38:16Z</time>
      </trkpt>
      <trkpt lat="48.7643" lon="2.02899">
        <ele>154.91</ele>
        <time>2011-10-22T14:38:17Z</time>
      </trkpt>
      <trkpt lat="48.76436" lon="2.02895">
        <ele>155.39</ele>
        <time>2011-10-22T14:38:18Z</time>
      </trkpt>
      <trkpt lat="48.76442" lon="2.02893">
        <ele>154.91</ele>
        <time>2011-10-22T14:38:19Z</time>
      </trkpt>
      <trkpt lat="48.76449" lon="2.02892">
        <ele>154.91</ele>
        <time>2011-10-22T14:38:20Z</time>
      </trkpt>
      <trkpt lat="48.76455" lon="2.02893">
        <ele>154.43</ele>
        <time>2011-10-22T14:38:21Z</time>
      </trkpt>
      <trkpt lat="48.76462" lon="2.02894">
        <ele>154.43</ele>
        <time>2011-10-22T14:38:22Z</time>
      </trkpt>
      <trkpt lat="48.76494" lon="2.02899">
        <ele>154.43</ele>
        <time>2011-10-22T14:38:27Z</time>
      </trkpt>
      <trkpt lat="48.76588" lon="2.02916">
        <ele>153.95</ele>
        <time>2011-10-22T14:38:42Z</time>
      </trkpt>
      <trkpt lat="48.76594" lon="2.02918">
        <ele>153.95</ele>
        <time>2011-10-22T14:38:43Z</time>
      </trkpt>
      <trkpt lat="48.76599" lon="2.02923">
        <ele>153.95</ele>
        <time>2011-10-22T14:38:44Z</time>
      </trkpt>
      <trkpt lat="48.76603" lon="2.0293">
        <ele>153.47</ele>
        <time>2011-10-22T14:38:45Z</time>
      </trkpt>
      <trkpt lat="48.76605" lon="2.02938">
        <ele>153.47</ele>
        <time>2011-10-22T14:38:46Z</time>
      </trkpt>
      <trkpt lat="48.76606" lon="2.02947">
        <ele>153.95</ele>
        <time>2011-10-22T14:38:47Z</time>
      </trkpt>
      <trkpt lat="48.76606" lon="2.02957">
        <ele>153.95</ele>
        <time>2011-10-22T14:38:48Z</time>
      </trkpt>
      <trkpt lat="48.76606" lon="2.02966">
        <ele>153.47</ele>
        <time>2011-10-22T14:38:49Z</time>
      </trkpt>
      <trkpt lat="48.76607" lon="2.02975">
        <ele>153.95</ele>
        <time>2011-10-22T14:38:50Z</time>
      </trkpt>
      <trkpt lat="48.76603" lon="2.03127">
        <ele>153.47</ele>
        <time>2011-10-22T14:39:06Z</time>
      </trkpt>
      <trkpt lat="48.76594" lon="2.03178">
        <ele>152.99</ele>
        <time>2011-10-22T14:39:13Z</time>
      </trkpt>
      <trkpt lat="48.76593" lon="2.03183">
        <ele>152.99</ele>
        <time>2011-10-22T14:39:14Z</time>
      </trkpt>
      <trkpt lat="48.76594" lon="2.03189">
        <ele>152.99</ele>
        <time>2011-10-22T14:39:15Z</time>
      </trkpt>
      <trkpt lat="48.76597" lon="2.03193">
        <ele>152.99</ele>
        <time>2011-10-22T14:39:16Z</time>
      </trkpt>
      <trkpt lat="48.76601" lon="2.03195">
        <ele>153.47</ele>
        <time>2011-10-22T14:39:17Z</time>
      </trkpt>
      <trkpt lat="48.76604" lon="2.03199">
        <ele>153.47</ele>
        <time>2011-10-22T14:39:18Z</time>
      </trkpt>
      <trkpt lat="48.76605" lon="2.03203">
        <ele>153.47</ele>
        <time>2011-10-22T14:39:19Z</time>
      </trkpt>
      <trkpt lat="48.76606" lon="2.03206">
        <ele>153.47</ele>
        <time>2011-10-22T14:39:20Z</time>
      </trkpt>
      <trkpt lat="48.76608" lon="2.03209">
        <ele>153.47</ele>
        <time>2011-10-22T14:39:21Z</time>
      </trkpt>
      <trkpt lat="48.7661" lon="2.0321">
        <ele>153.95</ele>
        <time>2011-10-22T14:39:22Z</time>
      </trkpt>
      <trkpt lat="48.76613" lon="2.03212">
        <ele>154.43</ele>
        <time>2011-10-22T14:39:23Z</time>
      </trkpt>
      <trkpt lat="48.76615" lon="2.03216">
        <ele>154.91</ele>
        <time>2011-10-22T14:39:24Z</time>
      </trkpt>
      <trkpt lat="48.76616" lon="2.0322">
        <ele>154.43</ele>
        <time>2011-10-22T14:39:25Z</time>
      </trkpt>
      <trkpt lat="48.76615" lon="2.03225">
        <ele>154.43</ele>
        <time>2011-10-22T14:39:26Z</time>
      </trkpt>
      <trkpt lat="48.76614" lon="2.03229">
        <ele>153.47</ele>
        <time>2011-10-22T14:39:27Z</time>
      </trkpt>
      <trkpt lat="48.76612" lon="2.03234">
        <ele>153.95</ele>
        <time>2011-10-22T14:39:28Z</time>
      </trkpt>
      <trkpt lat="48.7661" lon="2.03244">
        <ele>153.95</ele>
        <time>2011-10-22T14:39:30Z</time>
      </trkpt>
      <trkpt lat="48.7661" lon="2.03248">
        <ele>154.43</ele>
        <time>2011-10-22T14:39:31Z</time>
      </trkpt>
      <trkpt lat="48.76611" lon="2.03251">
        <ele>153.95</ele>
        <time>2011-10-22T14:39:32Z</time>
      </trkpt>
      <trkpt lat="48.76613" lon="2.03252">
        <ele>153.95</ele>
        <time>2011-10-22T14:39:33Z</time>
      </trkpt>
      <trkpt lat="48.76614" lon="2.03254">
        <ele>153.95</ele>
        <time>2011-10-22T14:39:34Z</time>
      </trkpt>
      <trkpt lat="48.76617" lon="2.03256">
        <ele>153.95</ele>
        <time>2011-10-22T14:39:35Z</time>
      </trkpt>
      <trkpt lat="48.76622" lon="2.03258">
        <ele>153.95</ele>
        <time>2011-10-22T14:39:36Z</time>
      </trkpt>
      <trkpt lat="48.76703" lon="2.03294">
        <ele>152.99</ele>
        <time>2011-10-22T14:39:51Z</time>
      </trkpt>
      <trkpt lat="48.76719" lon="2.03303">
        <ele>153.47</ele>
        <time>2011-10-22T14:39:54Z</time>
      </trkpt>
      <trkpt lat="48.76727" lon="2.03312">
        <ele>152.99</ele>
        <time>2011-10-22T14:39:56Z</time>
      </trkpt>
      <trkpt lat="48.7673" lon="2.03318">
        <ele>152.99</ele>
        <time>2011-10-22T14:39:57Z</time>
      </trkpt>
      <trkpt lat="48.76733" lon="2.03325">
        <ele>152.51</ele>
        <time>2011-10-22T14:39:58Z</time>
      </trkpt>
      <trkpt lat="48.76736" lon="2.03331">
        <ele>152.51</ele>
        <time>2011-10-22T14:39:59Z</time>
      </trkpt>
      <trkpt lat="48.76739" lon="2.03337">
        <ele>152.99</ele>
        <time>2011-10-22T14:40:00Z</time>
      </trkpt>
      <trkpt lat="48.76742" lon="2.03342">
        <ele>152.99</ele>
        <time>2011-10-22T14:40:01Z</time>
      </trkpt>
      <trkpt lat="48.76747" lon="2.03346">
        <ele>152.51</ele>
        <time>2011-10-22T14:40:02Z</time>
      </trkpt>
      <trkpt lat="48.76751" lon="2.03348">
        <ele>152.03</ele>
        <time>2011-10-22T14:40:03Z</time>
      </trkpt>
      <trkpt lat="48.76756" lon="2.03349">
        <ele>151.54</ele>
        <time>2011-10-22T14:40:04Z</time>
      </trkpt>
      <trkpt lat="48.76761" lon="2.0335">
        <ele>151.54</ele>
        <time>2011-10-22T14:40:05Z</time>
      </trkpt>
      <trkpt lat="48.76766" lon="2.03354">
        <ele>151.06</ele>
        <time>2011-10-22T14:40:06Z</time>
      </trkpt>
      <trkpt lat="48.76769" lon="2.0336">
        <ele>151.54</ele>
        <time>2011-10-22T14:40:07Z</time>
      </trkpt>
      <trkpt lat="48.7677" lon="2.03367">
        <ele>151.54</ele>
        <time>2011-10-22T14:40:08Z</time>
      </trkpt>
      <trkpt lat="48.76771" lon="2.03374">
        <ele>151.54</ele>
        <time>2011-10-22T14:40:09Z</time>
      </trkpt>
      <trkpt lat="48.76773" lon="2.03379">
        <ele>151.54</ele>
        <time>2011-10-22T14:40:10Z</time>
      </trkpt>
      <trkpt lat="48.76777" lon="2.03383">
        <ele>151.54</ele>
        <time>2011-10-22T14:40:11Z</time>
      </trkpt>
      <trkpt lat="48.76781" lon="2.03385">
        <ele>151.54</ele>
        <time>2011-10-22T14:40:12Z</time>
      </trkpt>
      <trkpt lat="48.76785" lon="2.03387">
        <ele>151.06</ele>
        <time>2011-10-22T14:40:13Z</time>
      </trkpt>
      <trkpt lat="48.76807" lon="2.03395">
        <ele>152.03</ele>
        <time>2011-10-22T14:40:18Z</time>
      </trkpt>
      <trkpt lat="48.76811" lon="2.03399">
        <ele>152.51</ele>
        <time>2011-10-22T14:40:19Z</time>
      </trkpt>
      <trkpt lat="48.76812" lon="2.03403">
        <ele>152.51</ele>
        <time>2011-10-22T14:40:20Z</time>
      </trkpt>
      <trkpt lat="48.76815" lon="2.03407">
        <ele>152.51</ele>
        <time>2011-10-22T14:40:29Z</time>
      </trkpt>
      <trkpt lat="48.76815" lon="2.03407">
        <ele>152.99</ele>
        <time>2011-10-22T14:40:57Z</time>
      </trkpt>
      <trkpt lat="48.76815" lon="2.03407">
        <ele>152.51</ele>
        <time>2011-10-22T14:41:23Z</time>
      </trkpt>
      <trkpt lat="48.76815" lon="2.03407">
        <ele>152.99</ele>
        <time>2011-10-22T14:41:58Z</time>
      </trkpt>
      <trkpt lat="48.76815" lon="2.03407">
        <ele>152.99</ele>
        <time>2011-10-22T14:42:30Z</time>
      </trkpt>
      <trkpt lat="48.76816" lon="2.03407">
        <ele>153.47</ele>
        <time>2011-10-22T14:43:08Z</time>
      </trkpt>
      <trkpt lat="48.76816" lon="2.03407">
        <ele>152.99</ele>
        <time>2011-10-22T14:43:45Z</time>
      </trkpt>
      <trkpt lat="48.76816" lon="2.03407">
        <ele>153.47</ele>
        <time>2011-10-22T14:44:21Z</time>
      </trkpt>
      <trkpt lat="48.76816" lon="2.03407">
        <ele>153.95</ele>
        <time>2011-10-22T14:44:44Z</time>
      </trkpt>
      <trkpt lat="48.76816" lon="2.03407">
        <ele>153.47</ele>
        <time>2011-10-22T14:45:16Z</time>
      </trkpt>
      <trkpt lat="48.76816" lon="2.03406">
        <ele>152.99</ele>
        <time>2011-10-22T14:45:51Z</time>
      </trkpt>
      <trkpt lat="48.76816" lon="2.03406">
        <ele>153.95</ele>
        <time>2011-10-22T14:46:26Z</time>
      </trkpt>
      <trkpt lat="48.76816" lon="2.03406">
        <ele>153.95</ele>
        <time>2011-10-22T14:47:01Z</time>
      </trkpt>
      <trkpt lat="48.76817" lon="2.03406">
        <ele>154.91</ele>
        <time>2011-10-22T14:47:45Z</time>
      </trkpt>
      <trkpt lat="48.76817" lon="2.03406">
        <ele>152.51</ele>
        <time>2011-10-22T14:47:53Z</time>
      </trkpt>
      <trkpt lat="48.76817" lon="2.03406">
        <ele>155.39</ele>
        <time>2011-10-22T14:47:56Z</time>
      </trkpt>
      <trkpt lat="48.76816" lon="2.03406">
        <ele>154.91</ele>
        <time>2011-10-22T14:48:16Z</time>
      </trkpt>
      <trkpt lat="48.76815" lon="2.03406">
        <ele>154.91</ele>
        <time>2011-10-22T14:48:35Z</time>
      </trkpt>
      <trkpt lat="48.76815" lon="2.03406">
        <ele>154.91</ele>
        <time>2011-10-22T14:48:57Z</time>
      </trkpt>
      <trkpt lat="48.76815" lon="2.03406">
        <ele>154.91</ele>
        <time>2011-10-22T14:49:17Z</time>
      </trkpt>
    </trkseg>
  </trk>
</gpx>